<?xml version="1.0" encoding="UTF-8" standalone="no"?>
<gpx xmlns="http://www.topografix.com/GPX/1/1" creator="Elektrobit Street Director (R)" version="1.1" xmlns:xsi="http://www.w3.org/2001/XMLSchema-instance" xsi:schemaLocation="http://www.topografix.com/GPX/1/1 http://www.topografix.com/GPX/1/1/gpx.xsd http://www.gpstrailmaps.com/map3d/map3d http://www.gpstrailmaps.com/map3d/map3d.xsd http://www.topografix.com/GPX/gpx_style/0/2 http://www.topografix.com/GPX/gpx_style/0/2/gpx_style.xsd">
<metadata>
<name>                                                                                                                               </name>
<desc>                                                                                                                               </desc>
<author>
<name>                                                                                                                               </name>
<email domain="                               " id="                               "/>
<link href="                                                                                                                               ">
<text>                                                                                                                               </text>
<type>text/html</type>
</link>
</author>
<copyright author="                                                                                                                               ">
<year>                               </year>
<license>                                                                                                                               </license>
</copyright>
<time>                               </time>
<bounds minlat="47.031656                      " minlon="15.409580                      " maxlat="47.070252                      " maxlon="15.469494                      "/>
</metadata>
<wpt lat="47.066757                      " lon="15.469494                      ">
<name>                               </name>
<cmt>                               </cmt>
<desc>                                                                                                                               </desc>
<sym>                               </sym>
</wpt>
<trk>
<name>                               </name>
<cmt>                               </cmt>
<desc>                                                                                                                               </desc>
<number>                               </number>
<trkseg>
<trkpt lat="47.066757" lon="15.469494">
<ele>393.900000</ele>
<time>2012-11-05T09:45:28Z</time>
</trkpt>
<trkpt lat="47.066731" lon="15.469397">
<ele>393.800000</ele>
<time>2012-11-05T09:45:29Z</time>
</trkpt>
<trkpt lat="47.066678" lon="15.469230">
<ele>392.700000</ele>
<time>2012-11-05T09:45:31Z</time>
</trkpt>
<trkpt lat="47.066656" lon="15.469139">
<ele>393.100000</ele>
<time>2012-11-05T09:45:32Z</time>
</trkpt>
<trkpt lat="47.066649" lon="15.469037">
<ele>393.300000</ele>
<time>2012-11-05T09:45:33Z</time>
</trkpt>
<trkpt lat="47.066668" lon="15.468867">
<ele>391.800000</ele>
<time>2012-11-05T09:45:35Z</time>
</trkpt>
<trkpt lat="47.066697" lon="15.468678">
<ele>390.600000</ele>
<time>2012-11-05T09:45:37Z</time>
</trkpt>
<trkpt lat="47.066713" lon="15.468580">
<ele>390.300000</ele>
<time>2012-11-05T09:45:38Z</time>
</trkpt>
<trkpt lat="47.066734" lon="15.468468">
<ele>389.700000</ele>
<time>2012-11-05T09:45:39Z</time>
</trkpt>
<trkpt lat="47.066744" lon="15.468358">
<ele>388.100000</ele>
<time>2012-11-05T09:45:40Z</time>
</trkpt>
<trkpt lat="47.066751" lon="15.468251">
<ele>387.300000</ele>
<time>2012-11-05T09:45:41Z</time>
</trkpt>
<trkpt lat="47.066768" lon="15.468141">
<ele>386.700000</ele>
<time>2012-11-05T09:45:42Z</time>
</trkpt>
<trkpt lat="47.066773" lon="15.468025">
<ele>385.300000</ele>
<time>2012-11-05T09:45:43Z</time>
</trkpt>
<trkpt lat="47.066770" lon="15.467911">
<ele>384.300000</ele>
<time>2012-11-05T09:45:44Z</time>
</trkpt>
<trkpt lat="47.066773" lon="15.467796">
<ele>384.300000</ele>
<time>2012-11-05T09:45:45Z</time>
</trkpt>
<trkpt lat="47.066765" lon="15.467685">
<ele>385.000000</ele>
<time>2012-11-05T09:45:46Z</time>
</trkpt>
<trkpt lat="47.066748" lon="15.467582">
<ele>386.400000</ele>
<time>2012-11-05T09:45:47Z</time>
</trkpt>
<trkpt lat="47.066734" lon="15.467483">
<ele>388.000000</ele>
<time>2012-11-05T09:45:48Z</time>
</trkpt>
<trkpt lat="47.066714" lon="15.467382">
<ele>389.100000</ele>
<time>2012-11-05T09:45:49Z</time>
</trkpt>
<trkpt lat="47.066684" lon="15.467208">
<ele>390.200000</ele>
<time>2012-11-05T09:45:51Z</time>
</trkpt>
<trkpt lat="47.066655" lon="15.467119">
<ele>388.900000</ele>
<time>2012-11-05T09:45:52Z</time>
</trkpt>
<trkpt lat="47.066624" lon="15.467023">
<ele>387.600000</ele>
<time>2012-11-05T09:45:53Z</time>
</trkpt>
<trkpt lat="47.066599" lon="15.466928">
<ele>387.300000</ele>
<time>2012-11-05T09:45:54Z</time>
</trkpt>
<trkpt lat="47.066572" lon="15.466838">
<ele>386.500000</ele>
<time>2012-11-05T09:45:55Z</time>
</trkpt>
<trkpt lat="47.066533" lon="15.466670">
<ele>387.400000</ele>
<time>2012-11-05T09:45:57Z</time>
</trkpt>
<trkpt lat="47.066473" lon="15.466497">
<ele>386.900000</ele>
<time>2012-11-05T09:45:59Z</time>
</trkpt>
<trkpt lat="47.066443" lon="15.466412">
<ele>386.300000</ele>
<time>2012-11-05T09:46:00Z</time>
</trkpt>
<trkpt lat="47.066415" lon="15.466323">
<ele>386.100000</ele>
<time>2012-11-05T09:46:01Z</time>
</trkpt>
<trkpt lat="47.066378" lon="15.466242">
<ele>386.600000</ele>
<time>2012-11-05T09:46:02Z</time>
</trkpt>
<trkpt lat="47.066323" lon="15.466157">
<ele>386.900000</ele>
<time>2012-11-05T09:46:03Z</time>
</trkpt>
<trkpt lat="47.066275" lon="15.466080">
<ele>387.100000</ele>
<time>2012-11-05T09:46:04Z</time>
</trkpt>
<trkpt lat="47.066225" lon="15.466017">
<ele>388.600000</ele>
<time>2012-11-05T09:46:05Z</time>
</trkpt>
<trkpt lat="47.066105" lon="15.465901">
<ele>388.600000</ele>
<time>2012-11-05T09:46:07Z</time>
</trkpt>
<trkpt lat="47.066037" lon="15.465851">
<ele>388.300000</ele>
<time>2012-11-05T09:46:08Z</time>
</trkpt>
<trkpt lat="47.065963" lon="15.465794">
<ele>389.000000</ele>
<time>2012-11-05T09:46:09Z</time>
</trkpt>
<trkpt lat="47.065885" lon="15.465748">
<ele>389.200000</ele>
<time>2012-11-05T09:46:10Z</time>
</trkpt>
<trkpt lat="47.065809" lon="15.465700">
<ele>388.700000</ele>
<time>2012-11-05T09:46:11Z</time>
</trkpt>
<trkpt lat="47.065724" lon="15.465647">
<ele>389.200000</ele>
<time>2012-11-05T09:46:12Z</time>
</trkpt>
<trkpt lat="47.065650" lon="15.465597">
<ele>390.000000</ele>
<time>2012-11-05T09:46:13Z</time>
</trkpt>
<trkpt lat="47.065515" lon="15.465499">
<ele>393.000000</ele>
<time>2012-11-05T09:46:15Z</time>
</trkpt>
<trkpt lat="47.065433" lon="15.465429">
<ele>393.300000</ele>
<time>2012-11-05T09:46:16Z</time>
</trkpt>
<trkpt lat="47.065370" lon="15.465361">
<ele>393.300000</ele>
<time>2012-11-05T09:46:17Z</time>
</trkpt>
<trkpt lat="47.065323" lon="15.465291">
<ele>394.900000</ele>
<time>2012-11-05T09:46:18Z</time>
</trkpt>
<trkpt lat="47.065275" lon="15.465217">
<ele>395.200000</ele>
<time>2012-11-05T09:46:19Z</time>
</trkpt>
<trkpt lat="47.065226" lon="15.465142">
<ele>394.700000</ele>
<time>2012-11-05T09:46:20Z</time>
</trkpt>
<trkpt lat="47.065158" lon="15.465033">
<ele>395.100000</ele>
<time>2012-11-05T09:46:22Z</time>
</trkpt>
<trkpt lat="47.065087" lon="15.464946">
<ele>392.500000</ele>
<time>2012-11-05T09:46:51Z</time>
</trkpt>
<trkpt lat="47.065013" lon="15.464832">
<ele>393.800000</ele>
<time>2012-11-05T09:46:53Z</time>
</trkpt>
<trkpt lat="47.064982" lon="15.464691">
<ele>395.300000</ele>
<time>2012-11-05T09:46:55Z</time>
</trkpt>
<trkpt lat="47.065010" lon="15.464558">
<ele>394.500000</ele>
<time>2012-11-05T09:46:57Z</time>
</trkpt>
<trkpt lat="47.065075" lon="15.464412">
<ele>389.600000</ele>
<time>2012-11-05T09:46:59Z</time>
</trkpt>
<trkpt lat="47.065136" lon="15.464344">
<ele>387.200000</ele>
<time>2012-11-05T09:47:00Z</time>
</trkpt>
<trkpt lat="47.065190" lon="15.464279">
<ele>384.800000</ele>
<time>2012-11-05T09:47:01Z</time>
</trkpt>
<trkpt lat="47.065252" lon="15.464213">
<ele>382.800000</ele>
<time>2012-11-05T09:47:02Z</time>
</trkpt>
<trkpt lat="47.065292" lon="15.464128">
<ele>381.200000</ele>
<time>2012-11-05T09:47:03Z</time>
</trkpt>
<trkpt lat="47.065344" lon="15.464071">
<ele>381.600000</ele>
<time>2012-11-05T09:47:04Z</time>
</trkpt>
<trkpt lat="47.065414" lon="15.463989">
<ele>382.200000</ele>
<time>2012-11-05T09:47:06Z</time>
</trkpt>
<trkpt lat="47.065502" lon="15.463899">
<ele>388.100000</ele>
<time>2012-11-05T09:47:18Z</time>
</trkpt>
<trkpt lat="47.065575" lon="15.463812">
<ele>389.000000</ele>
<time>2012-11-05T09:47:20Z</time>
</trkpt>
<trkpt lat="47.065628" lon="15.463756">
<ele>388.600000</ele>
<time>2012-11-05T09:47:21Z</time>
</trkpt>
<trkpt lat="47.065675" lon="15.463653">
<ele>389.800000</ele>
<time>2012-11-05T09:47:22Z</time>
</trkpt>
<trkpt lat="47.065754" lon="15.463585">
<ele>389.600000</ele>
<time>2012-11-05T09:47:23Z</time>
</trkpt>
<trkpt lat="47.065851" lon="15.463517">
<ele>389.700000</ele>
<time>2012-11-05T09:47:24Z</time>
</trkpt>
<trkpt lat="47.065940" lon="15.463430">
<ele>389.600000</ele>
<time>2012-11-05T09:47:25Z</time>
</trkpt>
<trkpt lat="47.066031" lon="15.463351">
<ele>389.700000</ele>
<time>2012-11-05T09:47:26Z</time>
</trkpt>
<trkpt lat="47.066130" lon="15.463262">
<ele>389.900000</ele>
<time>2012-11-05T09:47:27Z</time>
</trkpt>
<trkpt lat="47.066220" lon="15.463174">
<ele>390.000000</ele>
<time>2012-11-05T09:47:28Z</time>
</trkpt>
<trkpt lat="47.066308" lon="15.463087">
<ele>390.200000</ele>
<time>2012-11-05T09:47:29Z</time>
</trkpt>
<trkpt lat="47.066395" lon="15.463000">
<ele>389.400000</ele>
<time>2012-11-05T09:47:30Z</time>
</trkpt>
<trkpt lat="47.066476" lon="15.462928">
<ele>390.100000</ele>
<time>2012-11-05T09:47:31Z</time>
</trkpt>
<trkpt lat="47.066556" lon="15.462854">
<ele>390.300000</ele>
<time>2012-11-05T09:47:32Z</time>
</trkpt>
<trkpt lat="47.066630" lon="15.462765">
<ele>390.700000</ele>
<time>2012-11-05T09:47:33Z</time>
</trkpt>
<trkpt lat="47.066704" lon="15.462672">
<ele>389.500000</ele>
<time>2012-11-05T09:47:34Z</time>
</trkpt>
<trkpt lat="47.066780" lon="15.462582">
<ele>389.400000</ele>
<time>2012-11-05T09:47:35Z</time>
</trkpt>
<trkpt lat="47.066865" lon="15.462515">
<ele>389.300000</ele>
<time>2012-11-05T09:47:36Z</time>
</trkpt>
<trkpt lat="47.066941" lon="15.462437">
<ele>388.800000</ele>
<time>2012-11-05T09:47:37Z</time>
</trkpt>
<trkpt lat="47.067022" lon="15.462340">
<ele>389.400000</ele>
<time>2012-11-05T09:47:38Z</time>
</trkpt>
<trkpt lat="47.067111" lon="15.462281">
<ele>388.200000</ele>
<time>2012-11-05T09:47:39Z</time>
</trkpt>
<trkpt lat="47.067190" lon="15.462204">
<ele>386.700000</ele>
<time>2012-11-05T09:47:40Z</time>
</trkpt>
<trkpt lat="47.067284" lon="15.462124">
<ele>387.300000</ele>
<time>2012-11-05T09:47:41Z</time>
</trkpt>
<trkpt lat="47.067388" lon="15.462050">
<ele>387.300000</ele>
<time>2012-11-05T09:47:42Z</time>
</trkpt>
<trkpt lat="47.067470" lon="15.461950">
<ele>387.500000</ele>
<time>2012-11-05T09:47:43Z</time>
</trkpt>
<trkpt lat="47.067575" lon="15.461879">
<ele>388.300000</ele>
<time>2012-11-05T09:47:44Z</time>
</trkpt>
<trkpt lat="47.067646" lon="15.461774">
<ele>388.800000</ele>
<time>2012-11-05T09:47:45Z</time>
</trkpt>
<trkpt lat="47.067734" lon="15.461690">
<ele>389.200000</ele>
<time>2012-11-05T09:47:46Z</time>
</trkpt>
<trkpt lat="47.067806" lon="15.461610">
<ele>388.800000</ele>
<time>2012-11-05T09:47:47Z</time>
</trkpt>
<trkpt lat="47.067880" lon="15.461514">
<ele>388.300000</ele>
<time>2012-11-05T09:47:48Z</time>
</trkpt>
<trkpt lat="47.067935" lon="15.461411">
<ele>387.400000</ele>
<time>2012-11-05T09:47:49Z</time>
</trkpt>
<trkpt lat="47.067992" lon="15.461325">
<ele>386.800000</ele>
<time>2012-11-05T09:47:50Z</time>
</trkpt>
<trkpt lat="47.068045" lon="15.461229">
<ele>386.100000</ele>
<time>2012-11-05T09:47:51Z</time>
</trkpt>
<trkpt lat="47.068099" lon="15.461132">
<ele>385.700000</ele>
<time>2012-11-05T09:47:52Z</time>
</trkpt>
<trkpt lat="47.068146" lon="15.461033">
<ele>384.100000</ele>
<time>2012-11-05T09:47:53Z</time>
</trkpt>
<trkpt lat="47.068205" lon="15.460948">
<ele>383.800000</ele>
<time>2012-11-05T09:47:54Z</time>
</trkpt>
<trkpt lat="47.068252" lon="15.460865">
<ele>383.200000</ele>
<time>2012-11-05T09:47:55Z</time>
</trkpt>
<trkpt lat="47.068305" lon="15.460780">
<ele>383.600000</ele>
<time>2012-11-05T09:47:56Z</time>
</trkpt>
<trkpt lat="47.068356" lon="15.460647">
<ele>383.100000</ele>
<time>2012-11-05T09:47:58Z</time>
</trkpt>
<trkpt lat="47.068400" lon="15.460525">
<ele>382.700000</ele>
<time>2012-11-05T09:48:00Z</time>
</trkpt>
<trkpt lat="47.068469" lon="15.460424">
<ele>384.000000</ele>
<time>2012-11-05T09:48:02Z</time>
</trkpt>
<trkpt lat="47.068536" lon="15.460333">
<ele>383.600000</ele>
<time>2012-11-05T09:48:04Z</time>
</trkpt>
<trkpt lat="47.068613" lon="15.460221">
<ele>383.700000</ele>
<time>2012-11-05T09:48:06Z</time>
</trkpt>
<trkpt lat="47.068701" lon="15.460093">
<ele>382.700000</ele>
<time>2012-11-05T09:48:08Z</time>
</trkpt>
<trkpt lat="47.068758" lon="15.460027">
<ele>382.800000</ele>
<time>2012-11-05T09:48:09Z</time>
</trkpt>
<trkpt lat="47.068811" lon="15.459972">
<ele>382.600000</ele>
<time>2012-11-05T09:48:10Z</time>
</trkpt>
<trkpt lat="47.068876" lon="15.459871">
<ele>381.500000</ele>
<time>2012-11-05T09:48:12Z</time>
</trkpt>
<trkpt lat="47.068934" lon="15.459773">
<ele>380.400000</ele>
<time>2012-11-05T09:48:14Z</time>
</trkpt>
<trkpt lat="47.069007" lon="15.459676">
<ele>381.900000</ele>
<time>2012-11-05T09:48:16Z</time>
</trkpt>
<trkpt lat="47.069059" lon="15.459614">
<ele>381.100000</ele>
<time>2012-11-05T09:48:18Z</time>
</trkpt>
<trkpt lat="47.069115" lon="15.459507">
<ele>380.300000</ele>
<time>2012-11-05T09:48:22Z</time>
</trkpt>
<trkpt lat="47.069184" lon="15.459411">
<ele>380.700000</ele>
<time>2012-11-05T09:48:24Z</time>
</trkpt>
<trkpt lat="47.069236" lon="15.459297">
<ele>380.500000</ele>
<time>2012-11-05T09:48:26Z</time>
</trkpt>
<trkpt lat="47.069242" lon="15.459116">
<ele>379.700000</ele>
<time>2012-11-05T09:48:28Z</time>
</trkpt>
<trkpt lat="47.069258" lon="15.459016">
<ele>378.800000</ele>
<time>2012-11-05T09:48:29Z</time>
</trkpt>
<trkpt lat="47.069281" lon="15.458922">
<ele>377.300000</ele>
<time>2012-11-05T09:48:30Z</time>
</trkpt>
<trkpt lat="47.069319" lon="15.458822">
<ele>377.100000</ele>
<time>2012-11-05T09:48:31Z</time>
</trkpt>
<trkpt lat="47.069347" lon="15.458710">
<ele>377.500000</ele>
<time>2012-11-05T09:48:32Z</time>
</trkpt>
<trkpt lat="47.069392" lon="15.458614">
<ele>377.600000</ele>
<time>2012-11-05T09:48:33Z</time>
</trkpt>
<trkpt lat="47.069425" lon="15.458500">
<ele>377.600000</ele>
<time>2012-11-05T09:48:34Z</time>
</trkpt>
<trkpt lat="47.069473" lon="15.458387">
<ele>377.400000</ele>
<time>2012-11-05T09:48:35Z</time>
</trkpt>
<trkpt lat="47.069520" lon="15.458276">
<ele>378.000000</ele>
<time>2012-11-05T09:48:36Z</time>
</trkpt>
<trkpt lat="47.069565" lon="15.458164">
<ele>378.300000</ele>
<time>2012-11-05T09:48:37Z</time>
</trkpt>
<trkpt lat="47.069595" lon="15.458053">
<ele>377.500000</ele>
<time>2012-11-05T09:48:38Z</time>
</trkpt>
<trkpt lat="47.069629" lon="15.457941">
<ele>377.200000</ele>
<time>2012-11-05T09:48:39Z</time>
</trkpt>
<trkpt lat="47.069655" lon="15.457825">
<ele>376.700000</ele>
<time>2012-11-05T09:48:40Z</time>
</trkpt>
<trkpt lat="47.069687" lon="15.457714">
<ele>376.800000</ele>
<time>2012-11-05T09:48:41Z</time>
</trkpt>
<trkpt lat="47.069719" lon="15.457609">
<ele>377.200000</ele>
<time>2012-11-05T09:48:42Z</time>
</trkpt>
<trkpt lat="47.069735" lon="15.457507">
<ele>378.700000</ele>
<time>2012-11-05T09:48:43Z</time>
</trkpt>
<trkpt lat="47.069761" lon="15.457407">
<ele>378.400000</ele>
<time>2012-11-05T09:48:44Z</time>
</trkpt>
<trkpt lat="47.069781" lon="15.457292">
<ele>378.600000</ele>
<time>2012-11-05T09:48:46Z</time>
</trkpt>
<trkpt lat="47.069790" lon="15.457202">
<ele>379.800000</ele>
<time>2012-11-05T09:48:51Z</time>
</trkpt>
<trkpt lat="47.069850" lon="15.457095">
<ele>382.500000</ele>
<time>2012-11-05T09:48:54Z</time>
</trkpt>
<trkpt lat="47.069877" lon="15.456950">
<ele>385.000000</ele>
<time>2012-11-05T09:48:56Z</time>
</trkpt>
<trkpt lat="47.069904" lon="15.456863">
<ele>386.000000</ele>
<time>2012-11-05T09:48:57Z</time>
</trkpt>
<trkpt lat="47.069946" lon="15.456785">
<ele>385.900000</ele>
<time>2012-11-05T09:48:58Z</time>
</trkpt>
<trkpt lat="47.069994" lon="15.456623">
<ele>385.500000</ele>
<time>2012-11-05T09:49:00Z</time>
</trkpt>
<trkpt lat="47.070027" lon="15.456530">
<ele>385.600000</ele>
<time>2012-11-05T09:49:01Z</time>
</trkpt>
<trkpt lat="47.070080" lon="15.456379">
<ele>385.900000</ele>
<time>2012-11-05T09:49:03Z</time>
</trkpt>
<trkpt lat="47.070114" lon="15.456259">
<ele>385.300000</ele>
<time>2012-11-05T09:49:05Z</time>
</trkpt>
<trkpt lat="47.070161" lon="15.456119">
<ele>383.900000</ele>
<time>2012-11-05T09:49:07Z</time>
</trkpt>
<trkpt lat="47.070206" lon="15.456004">
<ele>383.900000</ele>
<time>2012-11-05T09:49:09Z</time>
</trkpt>
<trkpt lat="47.070245" lon="15.455896">
<ele>383.000000</ele>
<time>2012-11-05T09:49:11Z</time>
</trkpt>
<trkpt lat="47.070252" lon="15.455797">
<ele>383.200000</ele>
<time>2012-11-05T09:49:13Z</time>
</trkpt>
<trkpt lat="47.070242" lon="15.455676">
<ele>385.000000</ele>
<time>2012-11-05T09:49:15Z</time>
</trkpt>
<trkpt lat="47.070250" lon="15.455522">
<ele>385.300000</ele>
<time>2012-11-05T09:49:17Z</time>
</trkpt>
<trkpt lat="47.070236" lon="15.455383">
<ele>385.400000</ele>
<time>2012-11-05T09:49:19Z</time>
</trkpt>
<trkpt lat="47.070198" lon="15.455303">
<ele>383.900000</ele>
<time>2012-11-05T09:49:20Z</time>
</trkpt>
<trkpt lat="47.070153" lon="15.455213">
<ele>384.200000</ele>
<time>2012-11-05T09:49:21Z</time>
</trkpt>
<trkpt lat="47.070111" lon="15.455137">
<ele>383.500000</ele>
<time>2012-11-05T09:49:22Z</time>
</trkpt>
<trkpt lat="47.070067" lon="15.455054">
<ele>383.400000</ele>
<time>2012-11-05T09:49:23Z</time>
</trkpt>
<trkpt lat="47.070023" lon="15.454972">
<ele>383.300000</ele>
<time>2012-11-05T09:49:24Z</time>
</trkpt>
<trkpt lat="47.069980" lon="15.454891">
<ele>383.200000</ele>
<time>2012-11-05T09:49:25Z</time>
</trkpt>
<trkpt lat="47.069921" lon="15.454801">
<ele>383.900000</ele>
<time>2012-11-05T09:49:26Z</time>
</trkpt>
<trkpt lat="47.069857" lon="15.454710">
<ele>382.500000</ele>
<time>2012-11-05T09:49:27Z</time>
</trkpt>
<trkpt lat="47.069811" lon="15.454626">
<ele>381.200000</ele>
<time>2012-11-05T09:49:28Z</time>
</trkpt>
<trkpt lat="47.069769" lon="15.454534">
<ele>381.000000</ele>
<time>2012-11-05T09:49:29Z</time>
</trkpt>
<trkpt lat="47.069728" lon="15.454448">
<ele>380.500000</ele>
<time>2012-11-05T09:49:30Z</time>
</trkpt>
<trkpt lat="47.069664" lon="15.454381">
<ele>382.900000</ele>
<time>2012-11-05T09:49:31Z</time>
</trkpt>
<trkpt lat="47.069617" lon="15.454295">
<ele>382.900000</ele>
<time>2012-11-05T09:49:32Z</time>
</trkpt>
<trkpt lat="47.069559" lon="15.454222">
<ele>383.600000</ele>
<time>2012-11-05T09:49:33Z</time>
</trkpt>
<trkpt lat="47.069503" lon="15.454147">
<ele>384.800000</ele>
<time>2012-11-05T09:49:34Z</time>
</trkpt>
<trkpt lat="47.069429" lon="15.454055">
<ele>384.600000</ele>
<time>2012-11-05T09:49:35Z</time>
</trkpt>
<trkpt lat="47.069358" lon="15.453975">
<ele>385.600000</ele>
<time>2012-11-05T09:49:36Z</time>
</trkpt>
<trkpt lat="47.069311" lon="15.453897">
<ele>387.100000</ele>
<time>2012-11-05T09:49:37Z</time>
</trkpt>
<trkpt lat="47.069256" lon="15.453822">
<ele>387.600000</ele>
<time>2012-11-05T09:49:38Z</time>
</trkpt>
<trkpt lat="47.069189" lon="15.453753">
<ele>388.600000</ele>
<time>2012-11-05T09:49:39Z</time>
</trkpt>
<trkpt lat="47.069122" lon="15.453668">
<ele>389.400000</ele>
<time>2012-11-05T09:49:40Z</time>
</trkpt>
<trkpt lat="47.069071" lon="15.453581">
<ele>390.500000</ele>
<time>2012-11-05T09:49:41Z</time>
</trkpt>
<trkpt lat="47.069039" lon="15.453472">
<ele>391.300000</ele>
<time>2012-11-05T09:49:42Z</time>
</trkpt>
<trkpt lat="47.068977" lon="15.453381">
<ele>389.400000</ele>
<time>2012-11-05T09:49:43Z</time>
</trkpt>
<trkpt lat="47.068929" lon="15.453288">
<ele>389.000000</ele>
<time>2012-11-05T09:49:44Z</time>
</trkpt>
<trkpt lat="47.068849" lon="15.453198">
<ele>388.600000</ele>
<time>2012-11-05T09:49:45Z</time>
</trkpt>
<trkpt lat="47.068778" lon="15.453121">
<ele>387.200000</ele>
<time>2012-11-05T09:49:46Z</time>
</trkpt>
<trkpt lat="47.068725" lon="15.453040">
<ele>387.100000</ele>
<time>2012-11-05T09:49:47Z</time>
</trkpt>
<trkpt lat="47.068668" lon="15.452952">
<ele>387.800000</ele>
<time>2012-11-05T09:49:48Z</time>
</trkpt>
<trkpt lat="47.068599" lon="15.452878">
<ele>387.000000</ele>
<time>2012-11-05T09:49:49Z</time>
</trkpt>
<trkpt lat="47.068608" lon="15.452782">
<ele>388.200000</ele>
<time>2012-11-05T09:49:50Z</time>
</trkpt>
<trkpt lat="47.068570" lon="15.452682">
<ele>387.000000</ele>
<time>2012-11-05T09:49:51Z</time>
</trkpt>
<trkpt lat="47.068531" lon="15.452602">
<ele>386.900000</ele>
<time>2012-11-05T09:49:52Z</time>
</trkpt>
<trkpt lat="47.068473" lon="15.452520">
<ele>386.500000</ele>
<time>2012-11-05T09:49:53Z</time>
</trkpt>
<trkpt lat="47.068406" lon="15.452428">
<ele>386.600000</ele>
<time>2012-11-05T09:49:54Z</time>
</trkpt>
<trkpt lat="47.068359" lon="15.452349">
<ele>386.900000</ele>
<time>2012-11-05T09:49:55Z</time>
</trkpt>
<trkpt lat="47.068321" lon="15.452254">
<ele>388.100000</ele>
<time>2012-11-05T09:49:56Z</time>
</trkpt>
<trkpt lat="47.068288" lon="15.452156">
<ele>390.200000</ele>
<time>2012-11-05T09:49:57Z</time>
</trkpt>
<trkpt lat="47.068266" lon="15.452060">
<ele>392.000000</ele>
<time>2012-11-05T09:49:58Z</time>
</trkpt>
<trkpt lat="47.068216" lon="15.451970">
<ele>392.000000</ele>
<time>2012-11-05T09:49:59Z</time>
</trkpt>
<trkpt lat="47.068159" lon="15.451887">
<ele>392.900000</ele>
<time>2012-11-05T09:50:00Z</time>
</trkpt>
<trkpt lat="47.068114" lon="15.451794">
<ele>393.500000</ele>
<time>2012-11-05T09:50:01Z</time>
</trkpt>
<trkpt lat="47.068069" lon="15.451698">
<ele>392.400000</ele>
<time>2012-11-05T09:50:02Z</time>
</trkpt>
<trkpt lat="47.068014" lon="15.451606">
<ele>391.700000</ele>
<time>2012-11-05T09:50:03Z</time>
</trkpt>
<trkpt lat="47.067968" lon="15.451519">
<ele>390.600000</ele>
<time>2012-11-05T09:50:04Z</time>
</trkpt>
<trkpt lat="47.067898" lon="15.451433">
<ele>388.100000</ele>
<time>2012-11-05T09:50:06Z</time>
</trkpt>
<trkpt lat="47.067847" lon="15.451318">
<ele>397.700000</ele>
<time>2012-11-05T09:50:15Z</time>
</trkpt>
<trkpt lat="47.067795" lon="15.451183">
<ele>400.700000</ele>
<time>2012-11-05T09:50:18Z</time>
</trkpt>
<trkpt lat="47.067767" lon="15.451098">
<ele>404.300000</ele>
<time>2012-11-05T09:50:21Z</time>
</trkpt>
<trkpt lat="47.067728" lon="15.451006">
<ele>408.000000</ele>
<time>2012-11-05T09:50:30Z</time>
</trkpt>
<trkpt lat="47.067682" lon="15.450938">
<ele>404.600000</ele>
<time>2012-11-05T09:50:34Z</time>
</trkpt>
<trkpt lat="47.067626" lon="15.450870">
<ele>400.100000</ele>
<time>2012-11-05T09:50:39Z</time>
</trkpt>
<trkpt lat="47.067582" lon="15.450791">
<ele>405.000000</ele>
<time>2012-11-05T09:50:42Z</time>
</trkpt>
<trkpt lat="47.067556" lon="15.450671">
<ele>402.700000</ele>
<time>2012-11-05T09:50:45Z</time>
</trkpt>
<trkpt lat="47.067503" lon="15.450555">
<ele>401.500000</ele>
<time>2012-11-05T09:50:47Z</time>
</trkpt>
<trkpt lat="47.067487" lon="15.450457">
<ele>403.500000</ele>
<time>2012-11-05T09:50:48Z</time>
</trkpt>
<trkpt lat="47.067482" lon="15.450360">
<ele>406.800000</ele>
<time>2012-11-05T09:50:49Z</time>
</trkpt>
<trkpt lat="47.067446" lon="15.450276">
<ele>406.400000</ele>
<time>2012-11-05T09:50:50Z</time>
</trkpt>
<trkpt lat="47.067409" lon="15.450156">
<ele>406.000000</ele>
<time>2012-11-05T09:50:52Z</time>
</trkpt>
<trkpt lat="47.067428" lon="15.450067">
<ele>405.800000</ele>
<time>2012-11-05T09:50:56Z</time>
</trkpt>
<trkpt lat="47.067532" lon="15.450017">
<ele>406.100000</ele>
<time>2012-11-05T09:51:39Z</time>
</trkpt>
<trkpt lat="47.067450" lon="15.449999">
<ele>397.100000</ele>
<time>2012-11-05T09:51:41Z</time>
</trkpt>
<trkpt lat="47.067382" lon="15.449963">
<ele>388.200000</ele>
<time>2012-11-05T09:51:44Z</time>
</trkpt>
<trkpt lat="47.067442" lon="15.449864">
<ele>382.500000</ele>
<time>2012-11-05T09:51:47Z</time>
</trkpt>
<trkpt lat="47.067512" lon="15.449751">
<ele>376.400000</ele>
<time>2012-11-05T09:51:49Z</time>
</trkpt>
<trkpt lat="47.067538" lon="15.449664">
<ele>373.500000</ele>
<time>2012-11-05T09:51:50Z</time>
</trkpt>
<trkpt lat="47.067565" lon="15.449569">
<ele>371.200000</ele>
<time>2012-11-05T09:51:51Z</time>
</trkpt>
<trkpt lat="47.067603" lon="15.449485">
<ele>370.500000</ele>
<time>2012-11-05T09:51:52Z</time>
</trkpt>
<trkpt lat="47.067637" lon="15.449412">
<ele>370.200000</ele>
<time>2012-11-05T09:51:53Z</time>
</trkpt>
<trkpt lat="47.067676" lon="15.449337">
<ele>370.300000</ele>
<time>2012-11-05T09:51:54Z</time>
</trkpt>
<trkpt lat="47.067713" lon="15.449264">
<ele>370.200000</ele>
<time>2012-11-05T09:51:55Z</time>
</trkpt>
<trkpt lat="47.067776" lon="15.449156">
<ele>370.100000</ele>
<time>2012-11-05T09:51:57Z</time>
</trkpt>
<trkpt lat="47.067817" lon="15.449089">
<ele>370.800000</ele>
<time>2012-11-05T09:51:59Z</time>
</trkpt>
<trkpt lat="47.067884" lon="15.448973">
<ele>370.900000</ele>
<time>2012-11-05T09:52:02Z</time>
</trkpt>
<trkpt lat="47.067919" lon="15.448868">
<ele>369.200000</ele>
<time>2012-11-05T09:52:04Z</time>
</trkpt>
<trkpt lat="47.067971" lon="15.448754">
<ele>369.600000</ele>
<time>2012-11-05T09:52:06Z</time>
</trkpt>
<trkpt lat="47.068007" lon="15.448681">
<ele>369.900000</ele>
<time>2012-11-05T09:52:07Z</time>
</trkpt>
<trkpt lat="47.068041" lon="15.448613">
<ele>370.400000</ele>
<time>2012-11-05T09:52:08Z</time>
</trkpt>
<trkpt lat="47.068098" lon="15.448490">
<ele>369.600000</ele>
<time>2012-11-05T09:52:10Z</time>
</trkpt>
<trkpt lat="47.068160" lon="15.448384">
<ele>371.000000</ele>
<time>2012-11-05T09:52:12Z</time>
</trkpt>
<trkpt lat="47.068218" lon="15.448276">
<ele>370.800000</ele>
<time>2012-11-05T09:52:14Z</time>
</trkpt>
<trkpt lat="47.068265" lon="15.448144">
<ele>372.500000</ele>
<time>2012-11-05T09:52:16Z</time>
</trkpt>
<trkpt lat="47.068316" lon="15.448038">
<ele>372.700000</ele>
<time>2012-11-05T09:52:18Z</time>
</trkpt>
<trkpt lat="47.068358" lon="15.447949">
<ele>372.300000</ele>
<time>2012-11-05T09:52:20Z</time>
</trkpt>
<trkpt lat="47.068394" lon="15.447839">
<ele>372.000000</ele>
<time>2012-11-05T09:52:23Z</time>
</trkpt>
<trkpt lat="47.068442" lon="15.447744">
<ele>372.400000</ele>
<time>2012-11-05T09:52:25Z</time>
</trkpt>
<trkpt lat="47.068507" lon="15.447637">
<ele>372.400000</ele>
<time>2012-11-05T09:52:27Z</time>
</trkpt>
<trkpt lat="47.068556" lon="15.447571">
<ele>373.000000</ele>
<time>2012-11-05T09:52:29Z</time>
</trkpt>
<trkpt lat="47.068613" lon="15.447501">
<ele>375.300000</ele>
<time>2012-11-05T09:52:36Z</time>
</trkpt>
<trkpt lat="47.068647" lon="15.447375">
<ele>375.200000</ele>
<time>2012-11-05T09:52:38Z</time>
</trkpt>
<trkpt lat="47.068708" lon="15.447210">
<ele>371.700000</ele>
<time>2012-11-05T09:52:40Z</time>
</trkpt>
<trkpt lat="47.068753" lon="15.447126">
<ele>370.500000</ele>
<time>2012-11-05T09:52:41Z</time>
</trkpt>
<trkpt lat="47.068792" lon="15.447053">
<ele>370.000000</ele>
<time>2012-11-05T09:52:42Z</time>
</trkpt>
<trkpt lat="47.068851" lon="15.446935">
<ele>368.300000</ele>
<time>2012-11-05T09:52:44Z</time>
</trkpt>
<trkpt lat="47.068897" lon="15.446811">
<ele>367.000000</ele>
<time>2012-11-05T09:52:46Z</time>
</trkpt>
<trkpt lat="47.068933" lon="15.446715">
<ele>366.600000</ele>
<time>2012-11-05T09:52:48Z</time>
</trkpt>
<trkpt lat="47.068823" lon="15.446580">
<ele>369.300000</ele>
<time>2012-11-05T09:53:27Z</time>
</trkpt>
<trkpt lat="47.068900" lon="15.446501">
<ele>368.800000</ele>
<time>2012-11-05T09:53:29Z</time>
</trkpt>
<trkpt lat="47.068943" lon="15.446437">
<ele>368.300000</ele>
<time>2012-11-05T09:53:30Z</time>
</trkpt>
<trkpt lat="47.068975" lon="15.446341">
<ele>368.200000</ele>
<time>2012-11-05T09:53:31Z</time>
</trkpt>
<trkpt lat="47.069023" lon="15.446250">
<ele>368.400000</ele>
<time>2012-11-05T09:53:32Z</time>
</trkpt>
<trkpt lat="47.069076" lon="15.446150">
<ele>368.500000</ele>
<time>2012-11-05T09:53:33Z</time>
</trkpt>
<trkpt lat="47.069131" lon="15.446045">
<ele>368.400000</ele>
<time>2012-11-05T09:53:34Z</time>
</trkpt>
<trkpt lat="47.069175" lon="15.445955">
<ele>368.300000</ele>
<time>2012-11-05T09:53:35Z</time>
</trkpt>
<trkpt lat="47.069231" lon="15.445862">
<ele>368.900000</ele>
<time>2012-11-05T09:53:36Z</time>
</trkpt>
<trkpt lat="47.069283" lon="15.445779">
<ele>369.100000</ele>
<time>2012-11-05T09:53:37Z</time>
</trkpt>
<trkpt lat="47.069316" lon="15.445701">
<ele>368.700000</ele>
<time>2012-11-05T09:53:38Z</time>
</trkpt>
<trkpt lat="47.069356" lon="15.445612">
<ele>368.800000</ele>
<time>2012-11-05T09:53:39Z</time>
</trkpt>
<trkpt lat="47.069389" lon="15.445524">
<ele>368.500000</ele>
<time>2012-11-05T09:53:40Z</time>
</trkpt>
<trkpt lat="47.069432" lon="15.445411">
<ele>368.900000</ele>
<time>2012-11-05T09:53:42Z</time>
</trkpt>
<trkpt lat="47.069511" lon="15.445333">
<ele>365.400000</ele>
<time>2012-11-05T09:54:02Z</time>
</trkpt>
<trkpt lat="47.069565" lon="15.445220">
<ele>365.000000</ele>
<time>2012-11-05T09:54:04Z</time>
</trkpt>
<trkpt lat="47.069585" lon="15.445064">
<ele>365.100000</ele>
<time>2012-11-05T09:54:06Z</time>
</trkpt>
<trkpt lat="47.069537" lon="15.444922">
<ele>365.200000</ele>
<time>2012-11-05T09:54:08Z</time>
</trkpt>
<trkpt lat="47.069469" lon="15.444827">
<ele>366.200000</ele>
<time>2012-11-05T09:54:09Z</time>
</trkpt>
<trkpt lat="47.069408" lon="15.444728">
<ele>367.300000</ele>
<time>2012-11-05T09:54:10Z</time>
</trkpt>
<trkpt lat="47.069341" lon="15.444619">
<ele>367.800000</ele>
<time>2012-11-05T09:54:11Z</time>
</trkpt>
<trkpt lat="47.069281" lon="15.444508">
<ele>368.200000</ele>
<time>2012-11-05T09:54:12Z</time>
</trkpt>
<trkpt lat="47.069225" lon="15.444392">
<ele>367.800000</ele>
<time>2012-11-05T09:54:13Z</time>
</trkpt>
<trkpt lat="47.069164" lon="15.444288">
<ele>368.100000</ele>
<time>2012-11-05T09:54:14Z</time>
</trkpt>
<trkpt lat="47.069108" lon="15.444205">
<ele>369.300000</ele>
<time>2012-11-05T09:54:15Z</time>
</trkpt>
<trkpt lat="47.069060" lon="15.444121">
<ele>370.300000</ele>
<time>2012-11-05T09:54:16Z</time>
</trkpt>
<trkpt lat="47.069013" lon="15.444031">
<ele>370.900000</ele>
<time>2012-11-05T09:54:17Z</time>
</trkpt>
<trkpt lat="47.068968" lon="15.443945">
<ele>371.600000</ele>
<time>2012-11-05T09:54:18Z</time>
</trkpt>
<trkpt lat="47.068920" lon="15.443865">
<ele>373.100000</ele>
<time>2012-11-05T09:54:19Z</time>
</trkpt>
<trkpt lat="47.068860" lon="15.443765">
<ele>377.400000</ele>
<time>2012-11-05T09:54:21Z</time>
</trkpt>
<trkpt lat="47.068817" lon="15.443671">
<ele>378.400000</ele>
<time>2012-11-05T09:54:23Z</time>
</trkpt>
<trkpt lat="47.068729" lon="15.443560">
<ele>374.800000</ele>
<time>2012-11-05T09:54:34Z</time>
</trkpt>
<trkpt lat="47.068676" lon="15.443446">
<ele>374.900000</ele>
<time>2012-11-05T09:54:36Z</time>
</trkpt>
<trkpt lat="47.068592" lon="15.443287">
<ele>374.900000</ele>
<time>2012-11-05T09:54:38Z</time>
</trkpt>
<trkpt lat="47.068549" lon="15.443210">
<ele>375.000000</ele>
<time>2012-11-05T09:54:39Z</time>
</trkpt>
<trkpt lat="47.068514" lon="15.443142">
<ele>375.100000</ele>
<time>2012-11-05T09:54:40Z</time>
</trkpt>
<trkpt lat="47.068462" lon="15.443036">
<ele>376.100000</ele>
<time>2012-11-05T09:54:42Z</time>
</trkpt>
<trkpt lat="47.068408" lon="15.442925">
<ele>376.000000</ele>
<time>2012-11-05T09:54:44Z</time>
</trkpt>
<trkpt lat="47.068343" lon="15.442811">
<ele>375.400000</ele>
<time>2012-11-05T09:54:46Z</time>
</trkpt>
<trkpt lat="47.068291" lon="15.442736">
<ele>374.600000</ele>
<time>2012-11-05T09:54:47Z</time>
</trkpt>
<trkpt lat="47.068257" lon="15.442662">
<ele>376.700000</ele>
<time>2012-11-05T09:54:48Z</time>
</trkpt>
<trkpt lat="47.068178" lon="15.442519">
<ele>378.800000</ele>
<time>2012-11-05T09:54:50Z</time>
</trkpt>
<trkpt lat="47.068156" lon="15.442425">
<ele>376.100000</ele>
<time>2012-11-05T09:54:51Z</time>
</trkpt>
<trkpt lat="47.068131" lon="15.442342">
<ele>375.000000</ele>
<time>2012-11-05T09:54:52Z</time>
</trkpt>
<trkpt lat="47.068070" lon="15.442195">
<ele>375.400000</ele>
<time>2012-11-05T09:54:54Z</time>
</trkpt>
<trkpt lat="47.068032" lon="15.442106">
<ele>375.400000</ele>
<time>2012-11-05T09:54:55Z</time>
</trkpt>
<trkpt lat="47.067999" lon="15.442023">
<ele>375.100000</ele>
<time>2012-11-05T09:54:56Z</time>
</trkpt>
<trkpt lat="47.067959" lon="15.441940">
<ele>374.700000</ele>
<time>2012-11-05T09:54:57Z</time>
</trkpt>
<trkpt lat="47.067922" lon="15.441859">
<ele>374.200000</ele>
<time>2012-11-05T09:54:58Z</time>
</trkpt>
<trkpt lat="47.067890" lon="15.441777">
<ele>373.900000</ele>
<time>2012-11-05T09:54:59Z</time>
</trkpt>
<trkpt lat="47.067854" lon="15.441703">
<ele>372.700000</ele>
<time>2012-11-05T09:55:00Z</time>
</trkpt>
<trkpt lat="47.067811" lon="15.441591">
<ele>374.100000</ele>
<time>2012-11-05T09:55:02Z</time>
</trkpt>
<trkpt lat="47.067780" lon="15.441509">
<ele>374.700000</ele>
<time>2012-11-05T09:55:04Z</time>
</trkpt>
<trkpt lat="47.067738" lon="15.441396">
<ele>371.100000</ele>
<time>2012-11-05T09:55:06Z</time>
</trkpt>
<trkpt lat="47.067689" lon="15.441280">
<ele>373.800000</ele>
<time>2012-11-05T09:55:08Z</time>
</trkpt>
<trkpt lat="47.067641" lon="15.441118">
<ele>375.900000</ele>
<time>2012-11-05T09:55:10Z</time>
</trkpt>
<trkpt lat="47.067563" lon="15.440998">
<ele>379.400000</ele>
<time>2012-11-05T09:55:12Z</time>
</trkpt>
<trkpt lat="47.067539" lon="15.440844">
<ele>377.600000</ele>
<time>2012-11-05T09:55:14Z</time>
</trkpt>
<trkpt lat="47.067520" lon="15.440760">
<ele>379.800000</ele>
<time>2012-11-05T09:55:15Z</time>
</trkpt>
<trkpt lat="47.067487" lon="15.440603">
<ele>376.600000</ele>
<time>2012-11-05T09:55:17Z</time>
</trkpt>
<trkpt lat="47.067448" lon="15.440502">
<ele>378.400000</ele>
<time>2012-11-05T09:55:19Z</time>
</trkpt>
<trkpt lat="47.067376" lon="15.440349">
<ele>388.900000</ele>
<time>2012-11-05T09:55:49Z</time>
</trkpt>
<trkpt lat="47.067320" lon="15.440244">
<ele>386.800000</ele>
<time>2012-11-05T09:55:50Z</time>
</trkpt>
<trkpt lat="47.067284" lon="15.440078">
<ele>387.600000</ele>
<time>2012-11-05T09:55:52Z</time>
</trkpt>
<trkpt lat="47.067210" lon="15.440002">
<ele>386.500000</ele>
<time>2012-11-05T09:55:53Z</time>
</trkpt>
<trkpt lat="47.067149" lon="15.439921">
<ele>386.500000</ele>
<time>2012-11-05T09:55:54Z</time>
</trkpt>
<trkpt lat="47.067081" lon="15.439829">
<ele>386.400000</ele>
<time>2012-11-05T09:55:55Z</time>
</trkpt>
<trkpt lat="47.067028" lon="15.439724">
<ele>386.300000</ele>
<time>2012-11-05T09:55:56Z</time>
</trkpt>
<trkpt lat="47.066989" lon="15.439593">
<ele>383.100000</ele>
<time>2012-11-05T09:55:57Z</time>
</trkpt>
<trkpt lat="47.066957" lon="15.439491">
<ele>381.500000</ele>
<time>2012-11-05T09:55:58Z</time>
</trkpt>
<trkpt lat="47.066914" lon="15.439389">
<ele>380.800000</ele>
<time>2012-11-05T09:55:59Z</time>
</trkpt>
<trkpt lat="47.066882" lon="15.439312">
<ele>381.600000</ele>
<time>2012-11-05T09:56:00Z</time>
</trkpt>
<trkpt lat="47.066849" lon="15.439238">
<ele>381.500000</ele>
<time>2012-11-05T09:56:01Z</time>
</trkpt>
<trkpt lat="47.066783" lon="15.439135">
<ele>383.000000</ele>
<time>2012-11-05T09:56:03Z</time>
</trkpt>
<trkpt lat="47.066705" lon="15.439018">
<ele>384.800000</ele>
<time>2012-11-05T09:56:05Z</time>
</trkpt>
<trkpt lat="47.066666" lon="15.438942">
<ele>384.500000</ele>
<time>2012-11-05T09:56:06Z</time>
</trkpt>
<trkpt lat="47.066600" lon="15.438799">
<ele>383.000000</ele>
<time>2012-11-05T09:56:08Z</time>
</trkpt>
<trkpt lat="47.066569" lon="15.438704">
<ele>380.700000</ele>
<time>2012-11-05T09:56:09Z</time>
</trkpt>
<trkpt lat="47.066534" lon="15.438625">
<ele>381.300000</ele>
<time>2012-11-05T09:56:10Z</time>
</trkpt>
<trkpt lat="47.066503" lon="15.438543">
<ele>381.400000</ele>
<time>2012-11-05T09:56:11Z</time>
</trkpt>
<trkpt lat="47.066481" lon="15.438443">
<ele>378.800000</ele>
<time>2012-11-05T09:56:12Z</time>
</trkpt>
<trkpt lat="47.066467" lon="15.438318">
<ele>374.800000</ele>
<time>2012-11-05T09:56:13Z</time>
</trkpt>
<trkpt lat="47.066451" lon="15.438218">
<ele>373.700000</ele>
<time>2012-11-05T09:56:14Z</time>
</trkpt>
<trkpt lat="47.066430" lon="15.438114">
<ele>372.500000</ele>
<time>2012-11-05T09:56:15Z</time>
</trkpt>
<trkpt lat="47.066411" lon="15.438012">
<ele>372.200000</ele>
<time>2012-11-05T09:56:16Z</time>
</trkpt>
<trkpt lat="47.066409" lon="15.437904">
<ele>372.500000</ele>
<time>2012-11-05T09:56:17Z</time>
</trkpt>
<trkpt lat="47.066412" lon="15.437763">
<ele>371.000000</ele>
<time>2012-11-05T09:56:18Z</time>
</trkpt>
<trkpt lat="47.066410" lon="15.437629">
<ele>369.500000</ele>
<time>2012-11-05T09:56:19Z</time>
</trkpt>
<trkpt lat="47.066401" lon="15.437488">
<ele>368.200000</ele>
<time>2012-11-05T09:56:20Z</time>
</trkpt>
<trkpt lat="47.066383" lon="15.437352">
<ele>366.900000</ele>
<time>2012-11-05T09:56:21Z</time>
</trkpt>
<trkpt lat="47.066384" lon="15.437223">
<ele>365.700000</ele>
<time>2012-11-05T09:56:22Z</time>
</trkpt>
<trkpt lat="47.066381" lon="15.437098">
<ele>364.000000</ele>
<time>2012-11-05T09:56:23Z</time>
</trkpt>
<trkpt lat="47.066377" lon="15.436985">
<ele>363.200000</ele>
<time>2012-11-05T09:56:24Z</time>
</trkpt>
<trkpt lat="47.066374" lon="15.436870">
<ele>361.600000</ele>
<time>2012-11-05T09:56:25Z</time>
</trkpt>
<trkpt lat="47.066367" lon="15.436763">
<ele>359.600000</ele>
<time>2012-11-05T09:56:26Z</time>
</trkpt>
<trkpt lat="47.066363" lon="15.436658">
<ele>357.600000</ele>
<time>2012-11-05T09:56:27Z</time>
</trkpt>
<trkpt lat="47.066351" lon="15.436554">
<ele>355.600000</ele>
<time>2012-11-05T09:56:28Z</time>
</trkpt>
<trkpt lat="47.066350" lon="15.436438">
<ele>354.300000</ele>
<time>2012-11-05T09:56:29Z</time>
</trkpt>
<trkpt lat="47.066358" lon="15.436309">
<ele>355.000000</ele>
<time>2012-11-05T09:56:30Z</time>
</trkpt>
<trkpt lat="47.066377" lon="15.436187">
<ele>353.900000</ele>
<time>2012-11-05T09:56:31Z</time>
</trkpt>
<trkpt lat="47.066385" lon="15.436064">
<ele>353.800000</ele>
<time>2012-11-05T09:56:32Z</time>
</trkpt>
<trkpt lat="47.066379" lon="15.435946">
<ele>353.100000</ele>
<time>2012-11-05T09:56:33Z</time>
</trkpt>
<trkpt lat="47.066378" lon="15.435821">
<ele>352.900000</ele>
<time>2012-11-05T09:56:34Z</time>
</trkpt>
<trkpt lat="47.066390" lon="15.435694">
<ele>354.100000</ele>
<time>2012-11-05T09:56:35Z</time>
</trkpt>
<trkpt lat="47.066390" lon="15.435562">
<ele>354.400000</ele>
<time>2012-11-05T09:56:36Z</time>
</trkpt>
<trkpt lat="47.066394" lon="15.435420">
<ele>355.200000</ele>
<time>2012-11-05T09:56:37Z</time>
</trkpt>
<trkpt lat="47.066400" lon="15.435282">
<ele>355.700000</ele>
<time>2012-11-05T09:56:38Z</time>
</trkpt>
<trkpt lat="47.066404" lon="15.435143">
<ele>355.200000</ele>
<time>2012-11-05T09:56:39Z</time>
</trkpt>
<trkpt lat="47.066411" lon="15.435010">
<ele>355.300000</ele>
<time>2012-11-05T09:56:40Z</time>
</trkpt>
<trkpt lat="47.066419" lon="15.434875">
<ele>355.400000</ele>
<time>2012-11-05T09:56:41Z</time>
</trkpt>
<trkpt lat="47.066423" lon="15.434751">
<ele>355.400000</ele>
<time>2012-11-05T09:56:42Z</time>
</trkpt>
<trkpt lat="47.066428" lon="15.434622">
<ele>355.400000</ele>
<time>2012-11-05T09:56:43Z</time>
</trkpt>
<trkpt lat="47.066430" lon="15.434506">
<ele>355.300000</ele>
<time>2012-11-05T09:56:44Z</time>
</trkpt>
<trkpt lat="47.066457" lon="15.434374">
<ele>356.500000</ele>
<time>2012-11-05T09:56:45Z</time>
</trkpt>
<trkpt lat="47.066467" lon="15.434260">
<ele>357.100000</ele>
<time>2012-11-05T09:56:46Z</time>
</trkpt>
<trkpt lat="47.066463" lon="15.434140">
<ele>357.100000</ele>
<time>2012-11-05T09:56:47Z</time>
</trkpt>
<trkpt lat="47.066463" lon="15.434023">
<ele>357.200000</ele>
<time>2012-11-05T09:56:48Z</time>
</trkpt>
<trkpt lat="47.066462" lon="15.433913">
<ele>357.000000</ele>
<time>2012-11-05T09:56:49Z</time>
</trkpt>
<trkpt lat="47.066465" lon="15.433803">
<ele>357.000000</ele>
<time>2012-11-05T09:56:50Z</time>
</trkpt>
<trkpt lat="47.066465" lon="15.433698">
<ele>357.000000</ele>
<time>2012-11-05T09:56:51Z</time>
</trkpt>
<trkpt lat="47.066479" lon="15.433606">
<ele>356.800000</ele>
<time>2012-11-05T09:56:52Z</time>
</trkpt>
<trkpt lat="47.066493" lon="15.433514">
<ele>356.400000</ele>
<time>2012-11-05T09:56:53Z</time>
</trkpt>
<trkpt lat="47.066470" lon="15.433379">
<ele>354.600000</ele>
<time>2012-11-05T09:56:55Z</time>
</trkpt>
<trkpt lat="47.066475" lon="15.433252">
<ele>354.500000</ele>
<time>2012-11-05T09:56:57Z</time>
</trkpt>
<trkpt lat="47.066481" lon="15.433121">
<ele>352.000000</ele>
<time>2012-11-05T09:57:00Z</time>
</trkpt>
<trkpt lat="47.066477" lon="15.433015">
<ele>351.300000</ele>
<time>2012-11-05T09:57:02Z</time>
</trkpt>
<trkpt lat="47.066471" lon="15.432921">
<ele>349.300000</ele>
<time>2012-11-05T09:57:05Z</time>
</trkpt>
<trkpt lat="47.066467" lon="15.432783">
<ele>348.600000</ele>
<time>2012-11-05T09:57:08Z</time>
</trkpt>
<trkpt lat="47.066474" lon="15.432668">
<ele>347.500000</ele>
<time>2012-11-05T09:57:10Z</time>
</trkpt>
<trkpt lat="47.066512" lon="15.432531">
<ele>350.200000</ele>
<time>2012-11-05T09:57:12Z</time>
</trkpt>
<trkpt lat="47.066523" lon="15.432442">
<ele>350.500000</ele>
<time>2012-11-05T09:57:13Z</time>
</trkpt>
<trkpt lat="47.066549" lon="15.432261">
<ele>352.600000</ele>
<time>2012-11-05T09:57:15Z</time>
</trkpt>
<trkpt lat="47.066555" lon="15.432166">
<ele>353.800000</ele>
<time>2012-11-05T09:57:16Z</time>
</trkpt>
<trkpt lat="47.066566" lon="15.432071">
<ele>354.900000</ele>
<time>2012-11-05T09:57:17Z</time>
</trkpt>
<trkpt lat="47.066569" lon="15.431983">
<ele>355.900000</ele>
<time>2012-11-05T09:57:18Z</time>
</trkpt>
<trkpt lat="47.066597" lon="15.431863">
<ele>356.400000</ele>
<time>2012-11-05T09:57:20Z</time>
</trkpt>
<trkpt lat="47.066659" lon="15.431760">
<ele>357.000000</ele>
<time>2012-11-05T09:57:22Z</time>
</trkpt>
<trkpt lat="47.066746" lon="15.431668">
<ele>357.300000</ele>
<time>2012-11-05T09:57:24Z</time>
</trkpt>
<trkpt lat="47.066811" lon="15.431574">
<ele>358.000000</ele>
<time>2012-11-05T09:57:26Z</time>
</trkpt>
<trkpt lat="47.066861" lon="15.431497">
<ele>358.700000</ele>
<time>2012-11-05T09:57:28Z</time>
</trkpt>
<trkpt lat="47.066910" lon="15.431405">
<ele>359.500000</ele>
<time>2012-11-05T09:57:30Z</time>
</trkpt>
<trkpt lat="47.066944" lon="15.431315">
<ele>360.500000</ele>
<time>2012-11-05T09:57:32Z</time>
</trkpt>
<trkpt lat="47.066917" lon="15.431179">
<ele>359.300000</ele>
<time>2012-11-05T09:57:34Z</time>
</trkpt>
<trkpt lat="47.066880" lon="15.431035">
<ele>359.000000</ele>
<time>2012-11-05T09:57:36Z</time>
</trkpt>
<trkpt lat="47.066853" lon="15.430907">
<ele>358.200000</ele>
<time>2012-11-05T09:57:38Z</time>
</trkpt>
<trkpt lat="47.066826" lon="15.430760">
<ele>357.700000</ele>
<time>2012-11-05T09:57:40Z</time>
</trkpt>
<trkpt lat="47.066823" lon="15.430615">
<ele>357.900000</ele>
<time>2012-11-05T09:57:42Z</time>
</trkpt>
<trkpt lat="47.066819" lon="15.430524">
<ele>357.800000</ele>
<time>2012-11-05T09:57:43Z</time>
</trkpt>
<trkpt lat="47.066813" lon="15.430422">
<ele>357.900000</ele>
<time>2012-11-05T09:57:44Z</time>
</trkpt>
<trkpt lat="47.066808" lon="15.430329">
<ele>357.600000</ele>
<time>2012-11-05T09:57:45Z</time>
</trkpt>
<trkpt lat="47.066809" lon="15.430237">
<ele>357.200000</ele>
<time>2012-11-05T09:57:46Z</time>
</trkpt>
<trkpt lat="47.066801" lon="15.430139">
<ele>357.600000</ele>
<time>2012-11-05T09:57:47Z</time>
</trkpt>
<trkpt lat="47.066794" lon="15.430051">
<ele>358.600000</ele>
<time>2012-11-05T09:57:48Z</time>
</trkpt>
<trkpt lat="47.066803" lon="15.429917">
<ele>360.700000</ele>
<time>2012-11-05T09:57:50Z</time>
</trkpt>
<trkpt lat="47.066813" lon="15.429831">
<ele>362.700000</ele>
<time>2012-11-05T09:57:54Z</time>
</trkpt>
<trkpt lat="47.066813" lon="15.429692">
<ele>361.100000</ele>
<time>2012-11-05T09:57:57Z</time>
</trkpt>
<trkpt lat="47.066808" lon="15.429576">
<ele>360.000000</ele>
<time>2012-11-05T09:57:59Z</time>
</trkpt>
<trkpt lat="47.066813" lon="15.429439">
<ele>360.900000</ele>
<time>2012-11-05T09:58:01Z</time>
</trkpt>
<trkpt lat="47.066809" lon="15.429350">
<ele>360.700000</ele>
<time>2012-11-05T09:58:02Z</time>
</trkpt>
<trkpt lat="47.066822" lon="15.429187">
<ele>362.000000</ele>
<time>2012-11-05T09:58:04Z</time>
</trkpt>
<trkpt lat="47.066828" lon="15.429051">
<ele>362.500000</ele>
<time>2012-11-05T09:58:06Z</time>
</trkpt>
<trkpt lat="47.066834" lon="15.428892">
<ele>362.800000</ele>
<time>2012-11-05T09:58:08Z</time>
</trkpt>
<trkpt lat="47.066826" lon="15.428727">
<ele>363.200000</ele>
<time>2012-11-05T09:58:10Z</time>
</trkpt>
<trkpt lat="47.066794" lon="15.428595">
<ele>361.500000</ele>
<time>2012-11-05T09:58:12Z</time>
</trkpt>
<trkpt lat="47.066768" lon="15.428472">
<ele>360.700000</ele>
<time>2012-11-05T09:58:14Z</time>
</trkpt>
<trkpt lat="47.066744" lon="15.428371">
<ele>361.000000</ele>
<time>2012-11-05T09:58:16Z</time>
</trkpt>
<trkpt lat="47.066608" lon="15.428214">
<ele>374.300000</ele>
<time>2012-11-05T09:58:57Z</time>
</trkpt>
<trkpt lat="47.066594" lon="15.428103">
<ele>372.600000</ele>
<time>2012-11-05T09:58:59Z</time>
</trkpt>
<trkpt lat="47.066567" lon="15.427944">
<ele>371.300000</ele>
<time>2012-11-05T09:59:01Z</time>
</trkpt>
<trkpt lat="47.066552" lon="15.427842">
<ele>370.700000</ele>
<time>2012-11-05T09:59:02Z</time>
</trkpt>
<trkpt lat="47.066538" lon="15.427733">
<ele>370.000000</ele>
<time>2012-11-05T09:59:03Z</time>
</trkpt>
<trkpt lat="47.066520" lon="15.427581">
<ele>371.400000</ele>
<time>2012-11-05T09:59:05Z</time>
</trkpt>
<trkpt lat="47.066512" lon="15.427436">
<ele>372.800000</ele>
<time>2012-11-05T09:59:07Z</time>
</trkpt>
<trkpt lat="47.066510" lon="15.427322">
<ele>377.300000</ele>
<time>2012-11-05T10:00:03Z</time>
</trkpt>
<trkpt lat="47.066488" lon="15.427171">
<ele>377.000000</ele>
<time>2012-11-05T10:00:05Z</time>
</trkpt>
<trkpt lat="47.066466" lon="15.427072">
<ele>377.700000</ele>
<time>2012-11-05T10:00:06Z</time>
</trkpt>
<trkpt lat="47.066445" lon="15.426956">
<ele>377.600000</ele>
<time>2012-11-05T10:00:07Z</time>
</trkpt>
<trkpt lat="47.066429" lon="15.426819">
<ele>377.100000</ele>
<time>2012-11-05T10:00:08Z</time>
</trkpt>
<trkpt lat="47.066410" lon="15.426688">
<ele>376.000000</ele>
<time>2012-11-05T10:00:09Z</time>
</trkpt>
<trkpt lat="47.066389" lon="15.426563">
<ele>375.700000</ele>
<time>2012-11-05T10:00:10Z</time>
</trkpt>
<trkpt lat="47.066371" lon="15.426436">
<ele>375.500000</ele>
<time>2012-11-05T10:00:11Z</time>
</trkpt>
<trkpt lat="47.066334" lon="15.426300">
<ele>375.100000</ele>
<time>2012-11-05T10:00:12Z</time>
</trkpt>
<trkpt lat="47.066290" lon="15.426178">
<ele>375.200000</ele>
<time>2012-11-05T10:00:13Z</time>
</trkpt>
<trkpt lat="47.066264" lon="15.426050">
<ele>375.900000</ele>
<time>2012-11-05T10:00:14Z</time>
</trkpt>
<trkpt lat="47.066234" lon="15.425946">
<ele>376.200000</ele>
<time>2012-11-05T10:00:15Z</time>
</trkpt>
<trkpt lat="47.066253" lon="15.425778">
<ele>374.500000</ele>
<time>2012-11-05T10:00:16Z</time>
</trkpt>
<trkpt lat="47.066242" lon="15.425643">
<ele>373.200000</ele>
<time>2012-11-05T10:00:17Z</time>
</trkpt>
<trkpt lat="47.066237" lon="15.425501">
<ele>372.100000</ele>
<time>2012-11-05T10:00:18Z</time>
</trkpt>
<trkpt lat="47.066237" lon="15.425353">
<ele>371.900000</ele>
<time>2012-11-05T10:00:19Z</time>
</trkpt>
<trkpt lat="47.066198" lon="15.425233">
<ele>371.400000</ele>
<time>2012-11-05T10:00:20Z</time>
</trkpt>
<trkpt lat="47.066177" lon="15.425096">
<ele>371.000000</ele>
<time>2012-11-05T10:00:21Z</time>
</trkpt>
<trkpt lat="47.066165" lon="15.424954">
<ele>369.000000</ele>
<time>2012-11-05T10:00:22Z</time>
</trkpt>
<trkpt lat="47.066152" lon="15.424803">
<ele>368.300000</ele>
<time>2012-11-05T10:00:23Z</time>
</trkpt>
<trkpt lat="47.066134" lon="15.424666">
<ele>368.500000</ele>
<time>2012-11-05T10:00:24Z</time>
</trkpt>
<trkpt lat="47.066119" lon="15.424525">
<ele>368.500000</ele>
<time>2012-11-05T10:00:25Z</time>
</trkpt>
<trkpt lat="47.066098" lon="15.424390">
<ele>368.300000</ele>
<time>2012-11-05T10:00:26Z</time>
</trkpt>
<trkpt lat="47.066077" lon="15.424251">
<ele>367.800000</ele>
<time>2012-11-05T10:00:27Z</time>
</trkpt>
<trkpt lat="47.066061" lon="15.424124">
<ele>367.300000</ele>
<time>2012-11-05T10:00:28Z</time>
</trkpt>
<trkpt lat="47.066040" lon="15.424007">
<ele>366.800000</ele>
<time>2012-11-05T10:00:29Z</time>
</trkpt>
<trkpt lat="47.066029" lon="15.423894">
<ele>367.200000</ele>
<time>2012-11-05T10:00:30Z</time>
</trkpt>
<trkpt lat="47.066024" lon="15.423781">
<ele>368.100000</ele>
<time>2012-11-05T10:00:31Z</time>
</trkpt>
<trkpt lat="47.066018" lon="15.423678">
<ele>369.000000</ele>
<time>2012-11-05T10:00:32Z</time>
</trkpt>
<trkpt lat="47.066011" lon="15.423590">
<ele>369.600000</ele>
<time>2012-11-05T10:00:33Z</time>
</trkpt>
<trkpt lat="47.065993" lon="15.423449">
<ele>369.100000</ele>
<time>2012-11-05T10:00:35Z</time>
</trkpt>
<trkpt lat="47.065974" lon="15.423360">
<ele>369.700000</ele>
<time>2012-11-05T10:00:37Z</time>
</trkpt>
<trkpt lat="47.065950" lon="15.423250">
<ele>372.900000</ele>
<time>2012-11-05T10:00:40Z</time>
</trkpt>
<trkpt lat="47.065939" lon="15.423141">
<ele>370.800000</ele>
<time>2012-11-05T10:00:42Z</time>
</trkpt>
<trkpt lat="47.065916" lon="15.423050">
<ele>370.500000</ele>
<time>2012-11-05T10:00:44Z</time>
</trkpt>
<trkpt lat="47.065892" lon="15.422932">
<ele>371.300000</ele>
<time>2012-11-05T10:00:46Z</time>
</trkpt>
<trkpt lat="47.065863" lon="15.422780">
<ele>370.300000</ele>
<time>2012-11-05T10:00:48Z</time>
</trkpt>
<trkpt lat="47.065851" lon="15.422657">
<ele>368.700000</ele>
<time>2012-11-05T10:00:50Z</time>
</trkpt>
<trkpt lat="47.065844" lon="15.422543">
<ele>367.900000</ele>
<time>2012-11-05T10:00:52Z</time>
</trkpt>
<trkpt lat="47.065832" lon="15.422438">
<ele>367.500000</ele>
<time>2012-11-05T10:00:54Z</time>
</trkpt>
<trkpt lat="47.065824" lon="15.422344">
<ele>366.500000</ele>
<time>2012-11-05T10:00:56Z</time>
</trkpt>
<trkpt lat="47.065838" lon="15.422248">
<ele>363.100000</ele>
<time>2012-11-05T10:01:44Z</time>
</trkpt>
<trkpt lat="47.065813" lon="15.422115">
<ele>364.800000</ele>
<time>2012-11-05T10:01:46Z</time>
</trkpt>
<trkpt lat="47.065770" lon="15.421932">
<ele>368.100000</ele>
<time>2012-11-05T10:01:48Z</time>
</trkpt>
<trkpt lat="47.065752" lon="15.421830">
<ele>369.300000</ele>
<time>2012-11-05T10:01:49Z</time>
</trkpt>
<trkpt lat="47.065737" lon="15.421721">
<ele>370.400000</ele>
<time>2012-11-05T10:01:50Z</time>
</trkpt>
<trkpt lat="47.065722" lon="15.421613">
<ele>371.400000</ele>
<time>2012-11-05T10:01:51Z</time>
</trkpt>
<trkpt lat="47.065708" lon="15.421524">
<ele>372.400000</ele>
<time>2012-11-05T10:01:52Z</time>
</trkpt>
<trkpt lat="47.065687" lon="15.421405">
<ele>374.300000</ele>
<time>2012-11-05T10:01:54Z</time>
</trkpt>
<trkpt lat="47.065664" lon="15.421292">
<ele>370.900000</ele>
<time>2012-11-05T10:03:14Z</time>
</trkpt>
<trkpt lat="47.065633" lon="15.421149">
<ele>371.100000</ele>
<time>2012-11-05T10:03:16Z</time>
</trkpt>
<trkpt lat="47.065560" lon="15.421025">
<ele>371.400000</ele>
<time>2012-11-05T10:03:18Z</time>
</trkpt>
<trkpt lat="47.065500" lon="15.421012">
<ele>371.500000</ele>
<time>2012-11-05T10:03:19Z</time>
</trkpt>
<trkpt lat="47.065396" lon="15.421046">
<ele>371.700000</ele>
<time>2012-11-05T10:03:20Z</time>
</trkpt>
<trkpt lat="47.065282" lon="15.421094">
<ele>371.100000</ele>
<time>2012-11-05T10:03:21Z</time>
</trkpt>
<trkpt lat="47.065182" lon="15.421135">
<ele>370.300000</ele>
<time>2012-11-05T10:03:22Z</time>
</trkpt>
<trkpt lat="47.065077" lon="15.421197">
<ele>370.200000</ele>
<time>2012-11-05T10:03:23Z</time>
</trkpt>
<trkpt lat="47.065003" lon="15.421255">
<ele>369.600000</ele>
<time>2012-11-05T10:03:24Z</time>
</trkpt>
<trkpt lat="47.064926" lon="15.421312">
<ele>369.600000</ele>
<time>2012-11-05T10:03:25Z</time>
</trkpt>
<trkpt lat="47.064863" lon="15.421361">
<ele>369.900000</ele>
<time>2012-11-05T10:03:26Z</time>
</trkpt>
<trkpt lat="47.064780" lon="15.421437">
<ele>369.100000</ele>
<time>2012-11-05T10:03:28Z</time>
</trkpt>
<trkpt lat="47.064682" lon="15.421516">
<ele>369.100000</ele>
<time>2012-11-05T10:03:30Z</time>
</trkpt>
<trkpt lat="47.064620" lon="15.421565">
<ele>369.200000</ele>
<time>2012-11-05T10:03:31Z</time>
</trkpt>
<trkpt lat="47.064557" lon="15.421620">
<ele>369.600000</ele>
<time>2012-11-05T10:03:32Z</time>
</trkpt>
<trkpt lat="47.064484" lon="15.421660">
<ele>368.200000</ele>
<time>2012-11-05T10:03:33Z</time>
</trkpt>
<trkpt lat="47.064397" lon="15.421698">
<ele>366.900000</ele>
<time>2012-11-05T10:03:34Z</time>
</trkpt>
<trkpt lat="47.064335" lon="15.421739">
<ele>365.900000</ele>
<time>2012-11-05T10:03:35Z</time>
</trkpt>
<trkpt lat="47.064252" lon="15.421793">
<ele>365.400000</ele>
<time>2012-11-05T10:03:37Z</time>
</trkpt>
<trkpt lat="47.064342" lon="15.421812">
<ele>365.000000</ele>
<time>2012-11-05T10:03:42Z</time>
</trkpt>
<trkpt lat="47.064264" lon="15.421890">
<ele>368.800000</ele>
<time>2012-11-05T10:04:15Z</time>
</trkpt>
<trkpt lat="47.064195" lon="15.421927">
<ele>370.600000</ele>
<time>2012-11-05T10:04:17Z</time>
</trkpt>
<trkpt lat="47.064118" lon="15.421990">
<ele>370.600000</ele>
<time>2012-11-05T10:04:19Z</time>
</trkpt>
<trkpt lat="47.064048" lon="15.422002">
<ele>370.000000</ele>
<time>2012-11-05T10:04:21Z</time>
</trkpt>
<trkpt lat="47.063942" lon="15.422017">
<ele>370.800000</ele>
<time>2012-11-05T10:04:23Z</time>
</trkpt>
<trkpt lat="47.063871" lon="15.422057">
<ele>369.300000</ele>
<time>2012-11-05T10:04:25Z</time>
</trkpt>
<trkpt lat="47.063766" lon="15.422130">
<ele>366.600000</ele>
<time>2012-11-05T10:04:27Z</time>
</trkpt>
<trkpt lat="47.063702" lon="15.422238">
<ele>368.300000</ele>
<time>2012-11-05T10:04:29Z</time>
</trkpt>
<trkpt lat="47.063733" lon="15.422335">
<ele>369.600000</ele>
<time>2012-11-05T10:04:32Z</time>
</trkpt>
<trkpt lat="47.063763" lon="15.422441">
<ele>372.900000</ele>
<time>2012-11-05T10:04:51Z</time>
</trkpt>
<trkpt lat="47.063719" lon="15.422532">
<ele>372.400000</ele>
<time>2012-11-05T10:04:53Z</time>
</trkpt>
<trkpt lat="47.063616" lon="15.422642">
<ele>371.300000</ele>
<time>2012-11-05T10:04:55Z</time>
</trkpt>
<trkpt lat="47.063555" lon="15.422706">
<ele>371.000000</ele>
<time>2012-11-05T10:04:56Z</time>
</trkpt>
<trkpt lat="47.063485" lon="15.422767">
<ele>371.000000</ele>
<time>2012-11-05T10:04:57Z</time>
</trkpt>
<trkpt lat="47.063420" lon="15.422818">
<ele>370.300000</ele>
<time>2012-11-05T10:04:58Z</time>
</trkpt>
<trkpt lat="47.063352" lon="15.422880">
<ele>369.300000</ele>
<time>2012-11-05T10:04:59Z</time>
</trkpt>
<trkpt lat="47.063287" lon="15.422952">
<ele>368.900000</ele>
<time>2012-11-05T10:05:00Z</time>
</trkpt>
<trkpt lat="47.063222" lon="15.423034">
<ele>367.900000</ele>
<time>2012-11-05T10:05:01Z</time>
</trkpt>
<trkpt lat="47.063160" lon="15.423111">
<ele>367.700000</ele>
<time>2012-11-05T10:05:02Z</time>
</trkpt>
<trkpt lat="47.063097" lon="15.423188">
<ele>367.500000</ele>
<time>2012-11-05T10:05:03Z</time>
</trkpt>
<trkpt lat="47.063036" lon="15.423262">
<ele>367.500000</ele>
<time>2012-11-05T10:05:04Z</time>
</trkpt>
<trkpt lat="47.062972" lon="15.423330">
<ele>367.400000</ele>
<time>2012-11-05T10:05:05Z</time>
</trkpt>
<trkpt lat="47.062914" lon="15.423395">
<ele>367.200000</ele>
<time>2012-11-05T10:05:06Z</time>
</trkpt>
<trkpt lat="47.062866" lon="15.423449">
<ele>366.000000</ele>
<time>2012-11-05T10:05:07Z</time>
</trkpt>
<trkpt lat="47.062813" lon="15.423487">
<ele>365.200000</ele>
<time>2012-11-05T10:05:08Z</time>
</trkpt>
<trkpt lat="47.062752" lon="15.423510">
<ele>364.200000</ele>
<time>2012-11-05T10:05:10Z</time>
</trkpt>
<trkpt lat="47.062654" lon="15.423499">
<ele>365.100000</ele>
<time>2012-11-05T10:05:39Z</time>
</trkpt>
<trkpt lat="47.062542" lon="15.423435">
<ele>364.800000</ele>
<time>2012-11-05T10:05:41Z</time>
</trkpt>
<trkpt lat="47.062472" lon="15.423373">
<ele>364.700000</ele>
<time>2012-11-05T10:05:42Z</time>
</trkpt>
<trkpt lat="47.062403" lon="15.423299">
<ele>364.700000</ele>
<time>2012-11-05T10:05:43Z</time>
</trkpt>
<trkpt lat="47.062334" lon="15.423219">
<ele>364.700000</ele>
<time>2012-11-05T10:05:44Z</time>
</trkpt>
<trkpt lat="47.062268" lon="15.423138">
<ele>364.700000</ele>
<time>2012-11-05T10:05:45Z</time>
</trkpt>
<trkpt lat="47.062214" lon="15.423068">
<ele>364.800000</ele>
<time>2012-11-05T10:05:46Z</time>
</trkpt>
<trkpt lat="47.062157" lon="15.422996">
<ele>365.000000</ele>
<time>2012-11-05T10:05:47Z</time>
</trkpt>
<trkpt lat="47.062127" lon="15.422855">
<ele>363.900000</ele>
<time>2012-11-05T10:05:49Z</time>
</trkpt>
<trkpt lat="47.062198" lon="15.422800">
<ele>363.700000</ele>
<time>2012-11-05T10:05:52Z</time>
</trkpt>
<trkpt lat="47.062288" lon="15.422852">
<ele>364.300000</ele>
<time>2012-11-05T10:05:55Z</time>
</trkpt>
<trkpt lat="47.062340" lon="15.422906">
<ele>364.000000</ele>
<time>2012-11-05T10:05:57Z</time>
</trkpt>
<trkpt lat="47.062408" lon="15.422966">
<ele>363.900000</ele>
<time>2012-11-05T10:05:59Z</time>
</trkpt>
<trkpt lat="47.062467" lon="15.422998">
<ele>363.700000</ele>
<time>2012-11-05T10:06:01Z</time>
</trkpt>
<trkpt lat="47.062530" lon="15.423033">
<ele>364.100000</ele>
<time>2012-11-05T10:06:03Z</time>
</trkpt>
<trkpt lat="47.062585" lon="15.423079">
<ele>366.000000</ele>
<time>2012-11-05T10:06:06Z</time>
</trkpt>
<trkpt lat="47.062600" lon="15.423207">
<ele>365.100000</ele>
<time>2012-11-05T10:06:09Z</time>
</trkpt>
<trkpt lat="47.062556" lon="15.423266">
<ele>364.600000</ele>
<time>2012-11-05T10:06:12Z</time>
</trkpt>
<trkpt lat="47.062598" lon="15.423182">
<ele>360.700000</ele>
<time>2012-11-05T10:06:30Z</time>
</trkpt>
<trkpt lat="47.062545" lon="15.423110">
<ele>364.200000</ele>
<time>2012-11-05T10:06:35Z</time>
</trkpt>
<trkpt lat="47.062567" lon="15.422940">
<ele>392.300000</ele>
<time>2012-11-05T10:07:38Z</time>
</trkpt>
<trkpt lat="47.062493" lon="15.423075">
<ele>365.900000</ele>
<time>2012-11-05T10:10:17Z</time>
</trkpt>
<trkpt lat="47.062465" lon="15.422981">
<ele>370.800000</ele>
<time>2012-11-05T10:10:58Z</time>
</trkpt>
<trkpt lat="47.062431" lon="15.422869">
<ele>371.100000</ele>
<time>2012-11-05T10:11:00Z</time>
</trkpt>
<trkpt lat="47.062405" lon="15.422766">
<ele>371.400000</ele>
<time>2012-11-05T10:11:02Z</time>
</trkpt>
<trkpt lat="47.062368" lon="15.422666">
<ele>371.300000</ele>
<time>2012-11-05T10:11:04Z</time>
</trkpt>
<trkpt lat="47.062291" lon="15.422617">
<ele>370.800000</ele>
<time>2012-11-05T10:11:06Z</time>
</trkpt>
<trkpt lat="47.062212" lon="15.422643">
<ele>370.000000</ele>
<time>2012-11-05T10:11:09Z</time>
</trkpt>
<trkpt lat="47.062147" lon="15.422712">
<ele>369.600000</ele>
<time>2012-11-05T10:11:11Z</time>
</trkpt>
<trkpt lat="47.062100" lon="15.422766">
<ele>369.100000</ele>
<time>2012-11-05T10:11:14Z</time>
</trkpt>
<trkpt lat="47.062025" lon="15.422749">
<ele>368.600000</ele>
<time>2012-11-05T10:11:16Z</time>
</trkpt>
<trkpt lat="47.061932" lon="15.422659">
<ele>368.100000</ele>
<time>2012-11-05T10:11:18Z</time>
</trkpt>
<trkpt lat="47.061871" lon="15.422605">
<ele>368.100000</ele>
<time>2012-11-05T10:11:19Z</time>
</trkpt>
<trkpt lat="47.061799" lon="15.422547">
<ele>368.100000</ele>
<time>2012-11-05T10:11:20Z</time>
</trkpt>
<trkpt lat="47.061721" lon="15.422480">
<ele>368.200000</ele>
<time>2012-11-05T10:11:21Z</time>
</trkpt>
<trkpt lat="47.061642" lon="15.422406">
<ele>367.600000</ele>
<time>2012-11-05T10:11:22Z</time>
</trkpt>
<trkpt lat="47.061555" lon="15.422323">
<ele>367.300000</ele>
<time>2012-11-05T10:11:23Z</time>
</trkpt>
<trkpt lat="47.061462" lon="15.422231">
<ele>366.600000</ele>
<time>2012-11-05T10:11:24Z</time>
</trkpt>
<trkpt lat="47.061366" lon="15.422137">
<ele>366.600000</ele>
<time>2012-11-05T10:11:25Z</time>
</trkpt>
<trkpt lat="47.061275" lon="15.422045">
<ele>366.200000</ele>
<time>2012-11-05T10:11:26Z</time>
</trkpt>
<trkpt lat="47.061185" lon="15.421955">
<ele>366.300000</ele>
<time>2012-11-05T10:11:27Z</time>
</trkpt>
<trkpt lat="47.061094" lon="15.421865">
<ele>366.400000</ele>
<time>2012-11-05T10:11:28Z</time>
</trkpt>
<trkpt lat="47.060996" lon="15.421765">
<ele>365.600000</ele>
<time>2012-11-05T10:11:29Z</time>
</trkpt>
<trkpt lat="47.060900" lon="15.421670">
<ele>365.300000</ele>
<time>2012-11-05T10:11:30Z</time>
</trkpt>
<trkpt lat="47.060806" lon="15.421576">
<ele>365.000000</ele>
<time>2012-11-05T10:11:31Z</time>
</trkpt>
<trkpt lat="47.060713" lon="15.421484">
<ele>364.700000</ele>
<time>2012-11-05T10:11:32Z</time>
</trkpt>
<trkpt lat="47.060655" lon="15.421417">
<ele>364.300000</ele>
<time>2012-11-05T10:11:33Z</time>
</trkpt>
<trkpt lat="47.060605" lon="15.421362">
<ele>364.200000</ele>
<time>2012-11-05T10:11:34Z</time>
</trkpt>
<trkpt lat="47.060534" lon="15.421286">
<ele>364.200000</ele>
<time>2012-11-05T10:11:36Z</time>
</trkpt>
<trkpt lat="47.060485" lon="15.421230">
<ele>364.000000</ele>
<time>2012-11-05T10:11:41Z</time>
</trkpt>
<trkpt lat="47.060418" lon="15.421187">
<ele>367.100000</ele>
<time>2012-11-05T10:12:02Z</time>
</trkpt>
<trkpt lat="47.060325" lon="15.421098">
<ele>366.700000</ele>
<time>2012-11-05T10:12:04Z</time>
</trkpt>
<trkpt lat="47.060187" lon="15.420960">
<ele>366.200000</ele>
<time>2012-11-05T10:12:06Z</time>
</trkpt>
<trkpt lat="47.060119" lon="15.420888">
<ele>366.100000</ele>
<time>2012-11-05T10:12:07Z</time>
</trkpt>
<trkpt lat="47.060037" lon="15.420806">
<ele>366.200000</ele>
<time>2012-11-05T10:12:08Z</time>
</trkpt>
<trkpt lat="47.059951" lon="15.420717">
<ele>366.400000</ele>
<time>2012-11-05T10:12:09Z</time>
</trkpt>
<trkpt lat="47.059858" lon="15.420626">
<ele>366.600000</ele>
<time>2012-11-05T10:12:10Z</time>
</trkpt>
<trkpt lat="47.059769" lon="15.420534">
<ele>367.100000</ele>
<time>2012-11-05T10:12:11Z</time>
</trkpt>
<trkpt lat="47.059676" lon="15.420433">
<ele>366.900000</ele>
<time>2012-11-05T10:12:12Z</time>
</trkpt>
<trkpt lat="47.059586" lon="15.420322">
<ele>366.800000</ele>
<time>2012-11-05T10:12:13Z</time>
</trkpt>
<trkpt lat="47.059491" lon="15.420192">
<ele>366.700000</ele>
<time>2012-11-05T10:12:14Z</time>
</trkpt>
<trkpt lat="47.059407" lon="15.420061">
<ele>366.300000</ele>
<time>2012-11-05T10:12:15Z</time>
</trkpt>
<trkpt lat="47.059317" lon="15.419918">
<ele>365.500000</ele>
<time>2012-11-05T10:12:16Z</time>
</trkpt>
<trkpt lat="47.059234" lon="15.419778">
<ele>364.800000</ele>
<time>2012-11-05T10:12:17Z</time>
</trkpt>
<trkpt lat="47.059149" lon="15.419642">
<ele>364.700000</ele>
<time>2012-11-05T10:12:18Z</time>
</trkpt>
<trkpt lat="47.059066" lon="15.419507">
<ele>364.300000</ele>
<time>2012-11-05T10:12:19Z</time>
</trkpt>
<trkpt lat="47.058981" lon="15.419368">
<ele>364.200000</ele>
<time>2012-11-05T10:12:20Z</time>
</trkpt>
<trkpt lat="47.058888" lon="15.419239">
<ele>363.900000</ele>
<time>2012-11-05T10:12:21Z</time>
</trkpt>
<trkpt lat="47.058810" lon="15.419111">
<ele>363.400000</ele>
<time>2012-11-05T10:12:22Z</time>
</trkpt>
<trkpt lat="47.058735" lon="15.418962">
<ele>363.300000</ele>
<time>2012-11-05T10:12:23Z</time>
</trkpt>
<trkpt lat="47.058654" lon="15.418806">
<ele>362.300000</ele>
<time>2012-11-05T10:12:24Z</time>
</trkpt>
<trkpt lat="47.058564" lon="15.418661">
<ele>360.400000</ele>
<time>2012-11-05T10:12:25Z</time>
</trkpt>
<trkpt lat="47.058477" lon="15.418522">
<ele>359.600000</ele>
<time>2012-11-05T10:12:26Z</time>
</trkpt>
<trkpt lat="47.058379" lon="15.418397">
<ele>359.700000</ele>
<time>2012-11-05T10:12:27Z</time>
</trkpt>
<trkpt lat="47.058282" lon="15.418285">
<ele>359.000000</ele>
<time>2012-11-05T10:12:28Z</time>
</trkpt>
<trkpt lat="47.058181" lon="15.418176">
<ele>358.900000</ele>
<time>2012-11-05T10:12:29Z</time>
</trkpt>
<trkpt lat="47.058070" lon="15.418074">
<ele>359.200000</ele>
<time>2012-11-05T10:12:30Z</time>
</trkpt>
<trkpt lat="47.057962" lon="15.417992">
<ele>359.800000</ele>
<time>2012-11-05T10:12:31Z</time>
</trkpt>
<trkpt lat="47.057851" lon="15.417913">
<ele>361.000000</ele>
<time>2012-11-05T10:12:32Z</time>
</trkpt>
<trkpt lat="47.057759" lon="15.417847">
<ele>361.200000</ele>
<time>2012-11-05T10:12:33Z</time>
</trkpt>
<trkpt lat="47.057673" lon="15.417791">
<ele>361.600000</ele>
<time>2012-11-05T10:12:34Z</time>
</trkpt>
<trkpt lat="47.057589" lon="15.417745">
<ele>361.900000</ele>
<time>2012-11-05T10:12:35Z</time>
</trkpt>
<trkpt lat="47.057490" lon="15.417696">
<ele>362.000000</ele>
<time>2012-11-05T10:12:36Z</time>
</trkpt>
<trkpt lat="47.057395" lon="15.417651">
<ele>362.400000</ele>
<time>2012-11-05T10:12:37Z</time>
</trkpt>
<trkpt lat="47.057301" lon="15.417606">
<ele>363.000000</ele>
<time>2012-11-05T10:12:38Z</time>
</trkpt>
<trkpt lat="47.057215" lon="15.417572">
<ele>362.900000</ele>
<time>2012-11-05T10:12:39Z</time>
</trkpt>
<trkpt lat="47.057116" lon="15.417523">
<ele>363.200000</ele>
<time>2012-11-05T10:12:40Z</time>
</trkpt>
<trkpt lat="47.057031" lon="15.417478">
<ele>363.200000</ele>
<time>2012-11-05T10:12:41Z</time>
</trkpt>
<trkpt lat="47.056952" lon="15.417433">
<ele>363.300000</ele>
<time>2012-11-05T10:12:42Z</time>
</trkpt>
<trkpt lat="47.056867" lon="15.417392">
<ele>363.800000</ele>
<time>2012-11-05T10:12:43Z</time>
</trkpt>
<trkpt lat="47.056783" lon="15.417336">
<ele>363.700000</ele>
<time>2012-11-05T10:12:44Z</time>
</trkpt>
<trkpt lat="47.056706" lon="15.417275">
<ele>363.800000</ele>
<time>2012-11-05T10:12:45Z</time>
</trkpt>
<trkpt lat="47.056645" lon="15.417222">
<ele>363.700000</ele>
<time>2012-11-05T10:12:46Z</time>
</trkpt>
<trkpt lat="47.056577" lon="15.417169">
<ele>363.600000</ele>
<time>2012-11-05T10:12:47Z</time>
</trkpt>
<trkpt lat="47.056512" lon="15.417126">
<ele>364.200000</ele>
<time>2012-11-05T10:12:48Z</time>
</trkpt>
<trkpt lat="47.056418" lon="15.417067">
<ele>363.800000</ele>
<time>2012-11-05T10:12:50Z</time>
</trkpt>
<trkpt lat="47.056343" lon="15.417027">
<ele>363.200000</ele>
<time>2012-11-05T10:12:52Z</time>
</trkpt>
<trkpt lat="47.056283" lon="15.416996">
<ele>364.200000</ele>
<time>2012-11-05T10:12:55Z</time>
</trkpt>
<trkpt lat="47.056189" lon="15.416979">
<ele>367.400000</ele>
<time>2012-11-05T10:13:14Z</time>
</trkpt>
<trkpt lat="47.056095" lon="15.416937">
<ele>367.900000</ele>
<time>2012-11-05T10:13:16Z</time>
</trkpt>
<trkpt lat="47.056035" lon="15.416910">
<ele>368.300000</ele>
<time>2012-11-05T10:13:17Z</time>
</trkpt>
<trkpt lat="47.055926" lon="15.416848">
<ele>368.800000</ele>
<time>2012-11-05T10:13:19Z</time>
</trkpt>
<trkpt lat="47.055868" lon="15.416702">
<ele>369.000000</ele>
<time>2012-11-05T10:13:21Z</time>
</trkpt>
<trkpt lat="47.055852" lon="15.416603">
<ele>369.100000</ele>
<time>2012-11-05T10:13:22Z</time>
</trkpt>
<trkpt lat="47.055836" lon="15.416497">
<ele>369.200000</ele>
<time>2012-11-05T10:13:23Z</time>
</trkpt>
<trkpt lat="47.055823" lon="15.416385">
<ele>368.600000</ele>
<time>2012-11-05T10:13:24Z</time>
</trkpt>
<trkpt lat="47.055800" lon="15.416267">
<ele>368.000000</ele>
<time>2012-11-05T10:13:25Z</time>
</trkpt>
<trkpt lat="47.055768" lon="15.416139">
<ele>367.600000</ele>
<time>2012-11-05T10:13:26Z</time>
</trkpt>
<trkpt lat="47.055738" lon="15.416016">
<ele>367.400000</ele>
<time>2012-11-05T10:13:27Z</time>
</trkpt>
<trkpt lat="47.055719" lon="15.415905">
<ele>367.300000</ele>
<time>2012-11-05T10:13:28Z</time>
</trkpt>
<trkpt lat="47.055693" lon="15.415801">
<ele>367.500000</ele>
<time>2012-11-05T10:13:29Z</time>
</trkpt>
<trkpt lat="47.055771" lon="15.415806">
<ele>360.900000</ele>
<time>2012-11-05T10:14:17Z</time>
</trkpt>
<trkpt lat="47.055750" lon="15.415707">
<ele>361.500000</ele>
<time>2012-11-05T10:14:21Z</time>
</trkpt>
<trkpt lat="47.055667" lon="15.415605">
<ele>363.200000</ele>
<time>2012-11-05T10:14:27Z</time>
</trkpt>
<trkpt lat="47.055551" lon="15.415593">
<ele>363.700000</ele>
<time>2012-11-05T10:14:29Z</time>
</trkpt>
<trkpt lat="47.055483" lon="15.415610">
<ele>363.800000</ele>
<time>2012-11-05T10:14:30Z</time>
</trkpt>
<trkpt lat="47.055405" lon="15.415641">
<ele>363.800000</ele>
<time>2012-11-05T10:14:31Z</time>
</trkpt>
<trkpt lat="47.055329" lon="15.415673">
<ele>364.100000</ele>
<time>2012-11-05T10:14:32Z</time>
</trkpt>
<trkpt lat="47.055247" lon="15.415706">
<ele>364.500000</ele>
<time>2012-11-05T10:14:33Z</time>
</trkpt>
<trkpt lat="47.055154" lon="15.415743">
<ele>364.900000</ele>
<time>2012-11-05T10:14:34Z</time>
</trkpt>
<trkpt lat="47.055053" lon="15.415780">
<ele>365.100000</ele>
<time>2012-11-05T10:14:35Z</time>
</trkpt>
<trkpt lat="47.054949" lon="15.415815">
<ele>365.200000</ele>
<time>2012-11-05T10:14:36Z</time>
</trkpt>
<trkpt lat="47.054848" lon="15.415848">
<ele>365.400000</ele>
<time>2012-11-05T10:14:37Z</time>
</trkpt>
<trkpt lat="47.054748" lon="15.415874">
<ele>365.400000</ele>
<time>2012-11-05T10:14:38Z</time>
</trkpt>
<trkpt lat="47.054659" lon="15.415887">
<ele>366.100000</ele>
<time>2012-11-05T10:14:39Z</time>
</trkpt>
<trkpt lat="47.054576" lon="15.415886">
<ele>366.100000</ele>
<time>2012-11-05T10:14:40Z</time>
</trkpt>
<trkpt lat="47.054490" lon="15.415866">
<ele>366.100000</ele>
<time>2012-11-05T10:14:41Z</time>
</trkpt>
<trkpt lat="47.054406" lon="15.415838">
<ele>366.200000</ele>
<time>2012-11-05T10:14:42Z</time>
</trkpt>
<trkpt lat="47.054320" lon="15.415794">
<ele>366.400000</ele>
<time>2012-11-05T10:14:43Z</time>
</trkpt>
<trkpt lat="47.054228" lon="15.415729">
<ele>366.800000</ele>
<time>2012-11-05T10:14:44Z</time>
</trkpt>
<trkpt lat="47.054133" lon="15.415658">
<ele>366.500000</ele>
<time>2012-11-05T10:14:45Z</time>
</trkpt>
<trkpt lat="47.054034" lon="15.415573">
<ele>367.400000</ele>
<time>2012-11-05T10:14:46Z</time>
</trkpt>
<trkpt lat="47.053938" lon="15.415493">
<ele>367.700000</ele>
<time>2012-11-05T10:14:47Z</time>
</trkpt>
<trkpt lat="47.053846" lon="15.415402">
<ele>367.400000</ele>
<time>2012-11-05T10:14:48Z</time>
</trkpt>
<trkpt lat="47.053758" lon="15.415306">
<ele>367.600000</ele>
<time>2012-11-05T10:14:49Z</time>
</trkpt>
<trkpt lat="47.053669" lon="15.415210">
<ele>367.400000</ele>
<time>2012-11-05T10:14:50Z</time>
</trkpt>
<trkpt lat="47.053586" lon="15.415113">
<ele>367.500000</ele>
<time>2012-11-05T10:14:51Z</time>
</trkpt>
<trkpt lat="47.053502" lon="15.415015">
<ele>367.700000</ele>
<time>2012-11-05T10:14:52Z</time>
</trkpt>
<trkpt lat="47.053416" lon="15.414921">
<ele>368.300000</ele>
<time>2012-11-05T10:14:53Z</time>
</trkpt>
<trkpt lat="47.053340" lon="15.414831">
<ele>368.500000</ele>
<time>2012-11-05T10:14:54Z</time>
</trkpt>
<trkpt lat="47.053256" lon="15.414736">
<ele>368.500000</ele>
<time>2012-11-05T10:14:55Z</time>
</trkpt>
<trkpt lat="47.053164" lon="15.414639">
<ele>368.700000</ele>
<time>2012-11-05T10:14:56Z</time>
</trkpt>
<trkpt lat="47.053078" lon="15.414538">
<ele>369.000000</ele>
<time>2012-11-05T10:14:57Z</time>
</trkpt>
<trkpt lat="47.052992" lon="15.414440">
<ele>369.800000</ele>
<time>2012-11-05T10:14:58Z</time>
</trkpt>
<trkpt lat="47.052901" lon="15.414339">
<ele>370.200000</ele>
<time>2012-11-05T10:14:59Z</time>
</trkpt>
<trkpt lat="47.052812" lon="15.414234">
<ele>370.300000</ele>
<time>2012-11-05T10:15:00Z</time>
</trkpt>
<trkpt lat="47.052717" lon="15.414129">
<ele>369.700000</ele>
<time>2012-11-05T10:15:01Z</time>
</trkpt>
<trkpt lat="47.052624" lon="15.414026">
<ele>369.700000</ele>
<time>2012-11-05T10:15:02Z</time>
</trkpt>
<trkpt lat="47.052531" lon="15.413923">
<ele>369.700000</ele>
<time>2012-11-05T10:15:03Z</time>
</trkpt>
<trkpt lat="47.052438" lon="15.413817">
<ele>369.700000</ele>
<time>2012-11-05T10:15:04Z</time>
</trkpt>
<trkpt lat="47.052345" lon="15.413709">
<ele>369.300000</ele>
<time>2012-11-05T10:15:05Z</time>
</trkpt>
<trkpt lat="47.052255" lon="15.413606">
<ele>369.800000</ele>
<time>2012-11-05T10:15:06Z</time>
</trkpt>
<trkpt lat="47.052167" lon="15.413503">
<ele>369.800000</ele>
<time>2012-11-05T10:15:07Z</time>
</trkpt>
<trkpt lat="47.052078" lon="15.413402">
<ele>370.200000</ele>
<time>2012-11-05T10:15:08Z</time>
</trkpt>
<trkpt lat="47.051988" lon="15.413302">
<ele>370.400000</ele>
<time>2012-11-05T10:15:09Z</time>
</trkpt>
<trkpt lat="47.051899" lon="15.413201">
<ele>370.400000</ele>
<time>2012-11-05T10:15:10Z</time>
</trkpt>
<trkpt lat="47.051808" lon="15.413107">
<ele>370.700000</ele>
<time>2012-11-05T10:15:11Z</time>
</trkpt>
<trkpt lat="47.051714" lon="15.413014">
<ele>370.900000</ele>
<time>2012-11-05T10:15:12Z</time>
</trkpt>
<trkpt lat="47.051618" lon="15.412928">
<ele>370.500000</ele>
<time>2012-11-05T10:15:13Z</time>
</trkpt>
<trkpt lat="47.051521" lon="15.412846">
<ele>370.200000</ele>
<time>2012-11-05T10:15:14Z</time>
</trkpt>
<trkpt lat="47.051423" lon="15.412772">
<ele>370.100000</ele>
<time>2012-11-05T10:15:15Z</time>
</trkpt>
<trkpt lat="47.051321" lon="15.412700">
<ele>369.700000</ele>
<time>2012-11-05T10:15:16Z</time>
</trkpt>
<trkpt lat="47.051223" lon="15.412638">
<ele>369.700000</ele>
<time>2012-11-05T10:15:17Z</time>
</trkpt>
<trkpt lat="47.051125" lon="15.412581">
<ele>369.600000</ele>
<time>2012-11-05T10:15:18Z</time>
</trkpt>
<trkpt lat="47.051034" lon="15.412530">
<ele>369.000000</ele>
<time>2012-11-05T10:15:19Z</time>
</trkpt>
<trkpt lat="47.050937" lon="15.412479">
<ele>368.900000</ele>
<time>2012-11-05T10:15:20Z</time>
</trkpt>
<trkpt lat="47.050843" lon="15.412422">
<ele>368.700000</ele>
<time>2012-11-05T10:15:21Z</time>
</trkpt>
<trkpt lat="47.050748" lon="15.412365">
<ele>368.400000</ele>
<time>2012-11-05T10:15:22Z</time>
</trkpt>
<trkpt lat="47.050655" lon="15.412308">
<ele>368.100000</ele>
<time>2012-11-05T10:15:23Z</time>
</trkpt>
<trkpt lat="47.050564" lon="15.412248">
<ele>367.800000</ele>
<time>2012-11-05T10:15:24Z</time>
</trkpt>
<trkpt lat="47.050470" lon="15.412191">
<ele>367.800000</ele>
<time>2012-11-05T10:15:25Z</time>
</trkpt>
<trkpt lat="47.050376" lon="15.412131">
<ele>367.900000</ele>
<time>2012-11-05T10:15:26Z</time>
</trkpt>
<trkpt lat="47.050281" lon="15.412071">
<ele>368.100000</ele>
<time>2012-11-05T10:15:27Z</time>
</trkpt>
<trkpt lat="47.050175" lon="15.412008">
<ele>368.200000</ele>
<time>2012-11-05T10:15:28Z</time>
</trkpt>
<trkpt lat="47.050087" lon="15.411950">
<ele>367.600000</ele>
<time>2012-11-05T10:15:29Z</time>
</trkpt>
<trkpt lat="47.049995" lon="15.411886">
<ele>367.200000</ele>
<time>2012-11-05T10:15:30Z</time>
</trkpt>
<trkpt lat="47.049917" lon="15.411821">
<ele>367.000000</ele>
<time>2012-11-05T10:15:31Z</time>
</trkpt>
<trkpt lat="47.049847" lon="15.411757">
<ele>366.800000</ele>
<time>2012-11-05T10:15:32Z</time>
</trkpt>
<trkpt lat="47.049789" lon="15.411695">
<ele>366.700000</ele>
<time>2012-11-05T10:15:33Z</time>
</trkpt>
<trkpt lat="47.049713" lon="15.411670">
<ele>367.300000</ele>
<time>2012-11-05T10:15:35Z</time>
</trkpt>
<trkpt lat="47.049693" lon="15.411809">
<ele>366.700000</ele>
<time>2012-11-05T10:15:37Z</time>
</trkpt>
<trkpt lat="47.049714" lon="15.411896">
<ele>366.100000</ele>
<time>2012-11-05T10:15:38Z</time>
</trkpt>
<trkpt lat="47.049740" lon="15.412053">
<ele>365.200000</ele>
<time>2012-11-05T10:15:40Z</time>
</trkpt>
<trkpt lat="47.049761" lon="15.412214">
<ele>365.300000</ele>
<time>2012-11-05T10:15:42Z</time>
</trkpt>
<trkpt lat="47.049781" lon="15.412306">
<ele>365.400000</ele>
<time>2012-11-05T10:15:43Z</time>
</trkpt>
<trkpt lat="47.049792" lon="15.412395">
<ele>365.400000</ele>
<time>2012-11-05T10:15:44Z</time>
</trkpt>
<trkpt lat="47.049798" lon="15.412510">
<ele>365.100000</ele>
<time>2012-11-05T10:15:46Z</time>
</trkpt>
<trkpt lat="47.049802" lon="15.412627">
<ele>368.700000</ele>
<time>2012-11-05T10:15:55Z</time>
</trkpt>
<trkpt lat="47.049823" lon="15.412769">
<ele>369.000000</ele>
<time>2012-11-05T10:15:57Z</time>
</trkpt>
<trkpt lat="47.049838" lon="15.412868">
<ele>369.300000</ele>
<time>2012-11-05T10:15:58Z</time>
</trkpt>
<trkpt lat="47.049834" lon="15.412976">
<ele>369.100000</ele>
<time>2012-11-05T10:15:59Z</time>
</trkpt>
<trkpt lat="47.049839" lon="15.413081">
<ele>368.200000</ele>
<time>2012-11-05T10:16:00Z</time>
</trkpt>
<trkpt lat="47.049844" lon="15.413181">
<ele>367.800000</ele>
<time>2012-11-05T10:16:01Z</time>
</trkpt>
<trkpt lat="47.049850" lon="15.413292">
<ele>367.500000</ele>
<time>2012-11-05T10:16:02Z</time>
</trkpt>
<trkpt lat="47.049858" lon="15.413400">
<ele>367.200000</ele>
<time>2012-11-05T10:16:03Z</time>
</trkpt>
<trkpt lat="47.049863" lon="15.413515">
<ele>367.000000</ele>
<time>2012-11-05T10:16:04Z</time>
</trkpt>
<trkpt lat="47.049869" lon="15.413632">
<ele>367.000000</ele>
<time>2012-11-05T10:16:05Z</time>
</trkpt>
<trkpt lat="47.049875" lon="15.413748">
<ele>366.900000</ele>
<time>2012-11-05T10:16:06Z</time>
</trkpt>
<trkpt lat="47.049881" lon="15.413860">
<ele>366.800000</ele>
<time>2012-11-05T10:16:07Z</time>
</trkpt>
<trkpt lat="47.049887" lon="15.413967">
<ele>366.700000</ele>
<time>2012-11-05T10:16:08Z</time>
</trkpt>
<trkpt lat="47.049895" lon="15.414073">
<ele>366.900000</ele>
<time>2012-11-05T10:16:09Z</time>
</trkpt>
<trkpt lat="47.049901" lon="15.414183">
<ele>367.000000</ele>
<time>2012-11-05T10:16:10Z</time>
</trkpt>
<trkpt lat="47.049908" lon="15.414295">
<ele>367.000000</ele>
<time>2012-11-05T10:16:11Z</time>
</trkpt>
<trkpt lat="47.049915" lon="15.414412">
<ele>367.100000</ele>
<time>2012-11-05T10:16:12Z</time>
</trkpt>
<trkpt lat="47.049921" lon="15.414528">
<ele>367.200000</ele>
<time>2012-11-05T10:16:13Z</time>
</trkpt>
<trkpt lat="47.049931" lon="15.414645">
<ele>367.300000</ele>
<time>2012-11-05T10:16:14Z</time>
</trkpt>
<trkpt lat="47.049936" lon="15.414762">
<ele>367.400000</ele>
<time>2012-11-05T10:16:15Z</time>
</trkpt>
<trkpt lat="47.049943" lon="15.414875">
<ele>367.500000</ele>
<time>2012-11-05T10:16:16Z</time>
</trkpt>
<trkpt lat="47.049950" lon="15.414982">
<ele>367.400000</ele>
<time>2012-11-05T10:16:17Z</time>
</trkpt>
<trkpt lat="47.049965" lon="15.415149">
<ele>367.200000</ele>
<time>2012-11-05T10:16:19Z</time>
</trkpt>
<trkpt lat="47.049954" lon="15.415312">
<ele>366.900000</ele>
<time>2012-11-05T10:16:21Z</time>
</trkpt>
<trkpt lat="47.049956" lon="15.415397">
<ele>366.800000</ele>
<time>2012-11-05T10:16:22Z</time>
</trkpt>
<trkpt lat="47.049960" lon="15.415487">
<ele>366.700000</ele>
<time>2012-11-05T10:16:23Z</time>
</trkpt>
<trkpt lat="47.049965" lon="15.415576">
<ele>366.600000</ele>
<time>2012-11-05T10:16:24Z</time>
</trkpt>
<trkpt lat="47.049972" lon="15.415716">
<ele>366.900000</ele>
<time>2012-11-05T10:16:26Z</time>
</trkpt>
<trkpt lat="47.049920" lon="15.415779">
<ele>367.300000</ele>
<time>2012-11-05T10:16:32Z</time>
</trkpt>
<trkpt lat="47.049843" lon="15.415765">
<ele>367.600000</ele>
<time>2012-11-05T10:16:34Z</time>
</trkpt>
<trkpt lat="47.049712" lon="15.415744">
<ele>367.900000</ele>
<time>2012-11-05T10:16:36Z</time>
</trkpt>
<trkpt lat="47.049635" lon="15.415730">
<ele>368.100000</ele>
<time>2012-11-05T10:16:37Z</time>
</trkpt>
<trkpt lat="47.049557" lon="15.415715">
<ele>368.400000</ele>
<time>2012-11-05T10:16:38Z</time>
</trkpt>
<trkpt lat="47.049466" lon="15.415701">
<ele>368.500000</ele>
<time>2012-11-05T10:16:39Z</time>
</trkpt>
<trkpt lat="47.049367" lon="15.415685">
<ele>368.600000</ele>
<time>2012-11-05T10:16:40Z</time>
</trkpt>
<trkpt lat="47.049255" lon="15.415662">
<ele>368.200000</ele>
<time>2012-11-05T10:16:41Z</time>
</trkpt>
<trkpt lat="47.049141" lon="15.415642">
<ele>368.300000</ele>
<time>2012-11-05T10:16:42Z</time>
</trkpt>
<trkpt lat="47.049031" lon="15.415622">
<ele>368.200000</ele>
<time>2012-11-05T10:16:43Z</time>
</trkpt>
<trkpt lat="47.048923" lon="15.415602">
<ele>368.200000</ele>
<time>2012-11-05T10:16:44Z</time>
</trkpt>
<trkpt lat="47.048813" lon="15.415580">
<ele>367.800000</ele>
<time>2012-11-05T10:16:45Z</time>
</trkpt>
<trkpt lat="47.048703" lon="15.415561">
<ele>367.800000</ele>
<time>2012-11-05T10:16:46Z</time>
</trkpt>
<trkpt lat="47.048593" lon="15.415542">
<ele>367.800000</ele>
<time>2012-11-05T10:16:47Z</time>
</trkpt>
<trkpt lat="47.048481" lon="15.415522">
<ele>367.800000</ele>
<time>2012-11-05T10:16:48Z</time>
</trkpt>
<trkpt lat="47.048368" lon="15.415503">
<ele>367.800000</ele>
<time>2012-11-05T10:16:49Z</time>
</trkpt>
<trkpt lat="47.048253" lon="15.415483">
<ele>367.800000</ele>
<time>2012-11-05T10:16:50Z</time>
</trkpt>
<trkpt lat="47.048138" lon="15.415462">
<ele>367.800000</ele>
<time>2012-11-05T10:16:51Z</time>
</trkpt>
<trkpt lat="47.048023" lon="15.415442">
<ele>367.600000</ele>
<time>2012-11-05T10:16:52Z</time>
</trkpt>
<trkpt lat="47.047913" lon="15.415422">
<ele>367.900000</ele>
<time>2012-11-05T10:16:53Z</time>
</trkpt>
<trkpt lat="47.047805" lon="15.415400">
<ele>367.900000</ele>
<time>2012-11-05T10:16:54Z</time>
</trkpt>
<trkpt lat="47.047696" lon="15.415377">
<ele>367.800000</ele>
<time>2012-11-05T10:16:55Z</time>
</trkpt>
<trkpt lat="47.047593" lon="15.415354">
<ele>367.900000</ele>
<time>2012-11-05T10:16:56Z</time>
</trkpt>
<trkpt lat="47.047488" lon="15.415329">
<ele>368.300000</ele>
<time>2012-11-05T10:16:57Z</time>
</trkpt>
<trkpt lat="47.047382" lon="15.415303">
<ele>368.100000</ele>
<time>2012-11-05T10:16:58Z</time>
</trkpt>
<trkpt lat="47.047275" lon="15.415276">
<ele>367.900000</ele>
<time>2012-11-05T10:16:59Z</time>
</trkpt>
<trkpt lat="47.047165" lon="15.415250">
<ele>367.700000</ele>
<time>2012-11-05T10:17:00Z</time>
</trkpt>
<trkpt lat="47.047060" lon="15.415230">
<ele>367.600000</ele>
<time>2012-11-05T10:17:01Z</time>
</trkpt>
<trkpt lat="47.046964" lon="15.415209">
<ele>367.300000</ele>
<time>2012-11-05T10:17:02Z</time>
</trkpt>
<trkpt lat="47.046852" lon="15.415179">
<ele>367.400000</ele>
<time>2012-11-05T10:17:03Z</time>
</trkpt>
<trkpt lat="47.046742" lon="15.415147">
<ele>367.300000</ele>
<time>2012-11-05T10:17:04Z</time>
</trkpt>
<trkpt lat="47.046632" lon="15.415117">
<ele>367.100000</ele>
<time>2012-11-05T10:17:05Z</time>
</trkpt>
<trkpt lat="47.046522" lon="15.415071">
<ele>366.900000</ele>
<time>2012-11-05T10:17:06Z</time>
</trkpt>
<trkpt lat="47.046410" lon="15.415028">
<ele>366.900000</ele>
<time>2012-11-05T10:17:07Z</time>
</trkpt>
<trkpt lat="47.046295" lon="15.415000">
<ele>367.300000</ele>
<time>2012-11-05T10:17:08Z</time>
</trkpt>
<trkpt lat="47.046182" lon="15.414965">
<ele>367.200000</ele>
<time>2012-11-05T10:17:09Z</time>
</trkpt>
<trkpt lat="47.046068" lon="15.414926">
<ele>366.800000</ele>
<time>2012-11-05T10:17:10Z</time>
</trkpt>
<trkpt lat="47.045957" lon="15.414894">
<ele>366.700000</ele>
<time>2012-11-05T10:17:11Z</time>
</trkpt>
<trkpt lat="47.045847" lon="15.414866">
<ele>366.500000</ele>
<time>2012-11-05T10:17:12Z</time>
</trkpt>
<trkpt lat="47.045739" lon="15.414834">
<ele>366.200000</ele>
<time>2012-11-05T10:17:13Z</time>
</trkpt>
<trkpt lat="47.045629" lon="15.414804">
<ele>366.000000</ele>
<time>2012-11-05T10:17:14Z</time>
</trkpt>
<trkpt lat="47.045522" lon="15.414773">
<ele>365.900000</ele>
<time>2012-11-05T10:17:15Z</time>
</trkpt>
<trkpt lat="47.045412" lon="15.414738">
<ele>365.400000</ele>
<time>2012-11-05T10:17:16Z</time>
</trkpt>
<trkpt lat="47.045318" lon="15.414706">
<ele>365.400000</ele>
<time>2012-11-05T10:17:17Z</time>
</trkpt>
<trkpt lat="47.045218" lon="15.414676">
<ele>365.300000</ele>
<time>2012-11-05T10:17:18Z</time>
</trkpt>
<trkpt lat="47.045132" lon="15.414650">
<ele>365.300000</ele>
<time>2012-11-05T10:17:19Z</time>
</trkpt>
<trkpt lat="47.045064" lon="15.414628">
<ele>365.100000</ele>
<time>2012-11-05T10:17:20Z</time>
</trkpt>
<trkpt lat="47.045003" lon="15.414612">
<ele>365.200000</ele>
<time>2012-11-05T10:17:21Z</time>
</trkpt>
<trkpt lat="47.044937" lon="15.414591">
<ele>365.100000</ele>
<time>2012-11-05T10:17:22Z</time>
</trkpt>
<trkpt lat="47.044875" lon="15.414571">
<ele>365.400000</ele>
<time>2012-11-05T10:17:23Z</time>
</trkpt>
<trkpt lat="47.044752" lon="15.414529">
<ele>365.400000</ele>
<time>2012-11-05T10:17:25Z</time>
</trkpt>
<trkpt lat="47.044690" lon="15.414509">
<ele>365.600000</ele>
<time>2012-11-05T10:17:26Z</time>
</trkpt>
<trkpt lat="47.044585" lon="15.414484">
<ele>365.500000</ele>
<time>2012-11-05T10:17:28Z</time>
</trkpt>
<trkpt lat="47.044475" lon="15.414456">
<ele>365.800000</ele>
<time>2012-11-05T10:17:30Z</time>
</trkpt>
<trkpt lat="47.044406" lon="15.414435">
<ele>365.800000</ele>
<time>2012-11-05T10:17:31Z</time>
</trkpt>
<trkpt lat="47.044341" lon="15.414417">
<ele>366.100000</ele>
<time>2012-11-05T10:17:32Z</time>
</trkpt>
<trkpt lat="47.044264" lon="15.414393">
<ele>366.300000</ele>
<time>2012-11-05T10:17:33Z</time>
</trkpt>
<trkpt lat="47.044189" lon="15.414365">
<ele>366.500000</ele>
<time>2012-11-05T10:17:34Z</time>
</trkpt>
<trkpt lat="47.044113" lon="15.414342">
<ele>366.300000</ele>
<time>2012-11-05T10:17:35Z</time>
</trkpt>
<trkpt lat="47.044019" lon="15.414312">
<ele>365.800000</ele>
<time>2012-11-05T10:17:36Z</time>
</trkpt>
<trkpt lat="47.043934" lon="15.414286">
<ele>365.800000</ele>
<time>2012-11-05T10:17:37Z</time>
</trkpt>
<trkpt lat="47.043850" lon="15.414264">
<ele>365.200000</ele>
<time>2012-11-05T10:17:38Z</time>
</trkpt>
<trkpt lat="47.043778" lon="15.414241">
<ele>364.500000</ele>
<time>2012-11-05T10:17:39Z</time>
</trkpt>
<trkpt lat="47.043703" lon="15.414222">
<ele>364.100000</ele>
<time>2012-11-05T10:17:40Z</time>
</trkpt>
<trkpt lat="47.043616" lon="15.414195">
<ele>363.300000</ele>
<time>2012-11-05T10:17:42Z</time>
</trkpt>
<trkpt lat="47.043538" lon="15.414157">
<ele>357.300000</ele>
<time>2012-11-05T10:18:05Z</time>
</trkpt>
<trkpt lat="47.043444" lon="15.414134">
<ele>357.500000</ele>
<time>2012-11-05T10:18:07Z</time>
</trkpt>
<trkpt lat="47.043380" lon="15.414117">
<ele>357.700000</ele>
<time>2012-11-05T10:18:08Z</time>
</trkpt>
<trkpt lat="47.043296" lon="15.414097">
<ele>357.900000</ele>
<time>2012-11-05T10:18:09Z</time>
</trkpt>
<trkpt lat="47.043217" lon="15.414076">
<ele>358.000000</ele>
<time>2012-11-05T10:18:10Z</time>
</trkpt>
<trkpt lat="47.043137" lon="15.414059">
<ele>359.000000</ele>
<time>2012-11-05T10:18:11Z</time>
</trkpt>
<trkpt lat="47.043045" lon="15.414037">
<ele>359.800000</ele>
<time>2012-11-05T10:18:12Z</time>
</trkpt>
<trkpt lat="47.042960" lon="15.414014">
<ele>360.000000</ele>
<time>2012-11-05T10:18:13Z</time>
</trkpt>
<trkpt lat="47.042862" lon="15.413987">
<ele>360.200000</ele>
<time>2012-11-05T10:18:14Z</time>
</trkpt>
<trkpt lat="47.042770" lon="15.413963">
<ele>360.100000</ele>
<time>2012-11-05T10:18:15Z</time>
</trkpt>
<trkpt lat="47.042676" lon="15.413939">
<ele>360.000000</ele>
<time>2012-11-05T10:18:16Z</time>
</trkpt>
<trkpt lat="47.042585" lon="15.413907">
<ele>360.100000</ele>
<time>2012-11-05T10:18:17Z</time>
</trkpt>
<trkpt lat="47.042490" lon="15.413876">
<ele>360.100000</ele>
<time>2012-11-05T10:18:18Z</time>
</trkpt>
<trkpt lat="47.042395" lon="15.413844">
<ele>360.200000</ele>
<time>2012-11-05T10:18:19Z</time>
</trkpt>
<trkpt lat="47.042299" lon="15.413813">
<ele>360.600000</ele>
<time>2012-11-05T10:18:20Z</time>
</trkpt>
<trkpt lat="47.042208" lon="15.413777">
<ele>360.600000</ele>
<time>2012-11-05T10:18:21Z</time>
</trkpt>
<trkpt lat="47.042128" lon="15.413744">
<ele>360.300000</ele>
<time>2012-11-05T10:18:22Z</time>
</trkpt>
<trkpt lat="47.042042" lon="15.413709">
<ele>360.400000</ele>
<time>2012-11-05T10:18:23Z</time>
</trkpt>
<trkpt lat="47.041945" lon="15.413666">
<ele>360.500000</ele>
<time>2012-11-05T10:18:24Z</time>
</trkpt>
<trkpt lat="47.041856" lon="15.413622">
<ele>360.600000</ele>
<time>2012-11-05T10:18:25Z</time>
</trkpt>
<trkpt lat="47.041768" lon="15.413579">
<ele>360.700000</ele>
<time>2012-11-05T10:18:26Z</time>
</trkpt>
<trkpt lat="47.041676" lon="15.413539">
<ele>360.800000</ele>
<time>2012-11-05T10:18:27Z</time>
</trkpt>
<trkpt lat="47.041576" lon="15.413489">
<ele>360.900000</ele>
<time>2012-11-05T10:18:28Z</time>
</trkpt>
<trkpt lat="47.041481" lon="15.413442">
<ele>361.000000</ele>
<time>2012-11-05T10:18:29Z</time>
</trkpt>
<trkpt lat="47.041396" lon="15.413402">
<ele>361.200000</ele>
<time>2012-11-05T10:18:30Z</time>
</trkpt>
<trkpt lat="47.041294" lon="15.413358">
<ele>361.200000</ele>
<time>2012-11-05T10:18:31Z</time>
</trkpt>
<trkpt lat="47.041199" lon="15.413312">
<ele>361.400000</ele>
<time>2012-11-05T10:18:32Z</time>
</trkpt>
<trkpt lat="47.041104" lon="15.413267">
<ele>361.600000</ele>
<time>2012-11-05T10:18:33Z</time>
</trkpt>
<trkpt lat="47.041019" lon="15.413226">
<ele>361.800000</ele>
<time>2012-11-05T10:18:34Z</time>
</trkpt>
<trkpt lat="47.040929" lon="15.413185">
<ele>362.000000</ele>
<time>2012-11-05T10:18:35Z</time>
</trkpt>
<trkpt lat="47.040853" lon="15.413147">
<ele>362.300000</ele>
<time>2012-11-05T10:18:36Z</time>
</trkpt>
<trkpt lat="47.040783" lon="15.413104">
<ele>362.500000</ele>
<time>2012-11-05T10:18:37Z</time>
</trkpt>
<trkpt lat="47.040712" lon="15.413046">
<ele>362.600000</ele>
<time>2012-11-05T10:18:38Z</time>
</trkpt>
<trkpt lat="47.040638" lon="15.412995">
<ele>362.500000</ele>
<time>2012-11-05T10:18:39Z</time>
</trkpt>
<trkpt lat="47.040549" lon="15.412950">
<ele>362.700000</ele>
<time>2012-11-05T10:18:40Z</time>
</trkpt>
<trkpt lat="47.040466" lon="15.412915">
<ele>362.900000</ele>
<time>2012-11-05T10:18:41Z</time>
</trkpt>
<trkpt lat="47.040381" lon="15.412875">
<ele>363.100000</ele>
<time>2012-11-05T10:18:42Z</time>
</trkpt>
<trkpt lat="47.040286" lon="15.412822">
<ele>363.300000</ele>
<time>2012-11-05T10:18:43Z</time>
</trkpt>
<trkpt lat="47.040198" lon="15.412771">
<ele>363.500000</ele>
<time>2012-11-05T10:18:44Z</time>
</trkpt>
<trkpt lat="47.040102" lon="15.412729">
<ele>364.600000</ele>
<time>2012-11-05T10:18:45Z</time>
</trkpt>
<trkpt lat="47.040009" lon="15.412687">
<ele>365.100000</ele>
<time>2012-11-05T10:18:46Z</time>
</trkpt>
<trkpt lat="47.039903" lon="15.412649">
<ele>366.000000</ele>
<time>2012-11-05T10:18:47Z</time>
</trkpt>
<trkpt lat="47.039809" lon="15.412607">
<ele>366.400000</ele>
<time>2012-11-05T10:18:48Z</time>
</trkpt>
<trkpt lat="47.039714" lon="15.412561">
<ele>366.600000</ele>
<time>2012-11-05T10:18:49Z</time>
</trkpt>
<trkpt lat="47.039619" lon="15.412520">
<ele>366.700000</ele>
<time>2012-11-05T10:18:50Z</time>
</trkpt>
<trkpt lat="47.039514" lon="15.412470">
<ele>366.800000</ele>
<time>2012-11-05T10:18:51Z</time>
</trkpt>
<trkpt lat="47.039414" lon="15.412419">
<ele>366.900000</ele>
<time>2012-11-05T10:18:52Z</time>
</trkpt>
<trkpt lat="47.039309" lon="15.412371">
<ele>367.000000</ele>
<time>2012-11-05T10:18:53Z</time>
</trkpt>
<trkpt lat="47.039202" lon="15.412321">
<ele>367.000000</ele>
<time>2012-11-05T10:18:54Z</time>
</trkpt>
<trkpt lat="47.039097" lon="15.412272">
<ele>367.300000</ele>
<time>2012-11-05T10:18:55Z</time>
</trkpt>
<trkpt lat="47.038996" lon="15.412221">
<ele>367.500000</ele>
<time>2012-11-05T10:18:56Z</time>
</trkpt>
<trkpt lat="47.038906" lon="15.412177">
<ele>367.500000</ele>
<time>2012-11-05T10:18:57Z</time>
</trkpt>
<trkpt lat="47.038809" lon="15.412130">
<ele>367.500000</ele>
<time>2012-11-05T10:18:58Z</time>
</trkpt>
<trkpt lat="47.038700" lon="15.412083">
<ele>367.600000</ele>
<time>2012-11-05T10:18:59Z</time>
</trkpt>
<trkpt lat="47.038597" lon="15.412034">
<ele>367.600000</ele>
<time>2012-11-05T10:19:00Z</time>
</trkpt>
<trkpt lat="47.038490" lon="15.411984">
<ele>367.700000</ele>
<time>2012-11-05T10:19:01Z</time>
</trkpt>
<trkpt lat="47.038381" lon="15.411931">
<ele>367.800000</ele>
<time>2012-11-05T10:19:02Z</time>
</trkpt>
<trkpt lat="47.038261" lon="15.411873">
<ele>367.800000</ele>
<time>2012-11-05T10:19:03Z</time>
</trkpt>
<trkpt lat="47.038149" lon="15.411818">
<ele>367.900000</ele>
<time>2012-11-05T10:19:04Z</time>
</trkpt>
<trkpt lat="47.038047" lon="15.411762">
<ele>367.900000</ele>
<time>2012-11-05T10:19:05Z</time>
</trkpt>
<trkpt lat="47.037943" lon="15.411692">
<ele>366.800000</ele>
<time>2012-11-05T10:19:06Z</time>
</trkpt>
<trkpt lat="47.037839" lon="15.411629">
<ele>366.000000</ele>
<time>2012-11-05T10:19:07Z</time>
</trkpt>
<trkpt lat="47.037738" lon="15.411573">
<ele>365.200000</ele>
<time>2012-11-05T10:19:08Z</time>
</trkpt>
<trkpt lat="47.037640" lon="15.411521">
<ele>364.500000</ele>
<time>2012-11-05T10:19:09Z</time>
</trkpt>
<trkpt lat="47.037554" lon="15.411470">
<ele>363.900000</ele>
<time>2012-11-05T10:19:10Z</time>
</trkpt>
<trkpt lat="47.037461" lon="15.411414">
<ele>363.400000</ele>
<time>2012-11-05T10:19:11Z</time>
</trkpt>
<trkpt lat="47.037381" lon="15.411364">
<ele>363.000000</ele>
<time>2012-11-05T10:19:12Z</time>
</trkpt>
<trkpt lat="47.037292" lon="15.411311">
<ele>363.100000</ele>
<time>2012-11-05T10:19:13Z</time>
</trkpt>
<trkpt lat="47.037193" lon="15.411256">
<ele>363.200000</ele>
<time>2012-11-05T10:19:14Z</time>
</trkpt>
<trkpt lat="47.037103" lon="15.411203">
<ele>363.300000</ele>
<time>2012-11-05T10:19:15Z</time>
</trkpt>
<trkpt lat="47.037023" lon="15.411151">
<ele>362.900000</ele>
<time>2012-11-05T10:19:16Z</time>
</trkpt>
<trkpt lat="47.036939" lon="15.411096">
<ele>362.600000</ele>
<time>2012-11-05T10:19:17Z</time>
</trkpt>
<trkpt lat="47.036867" lon="15.411042">
<ele>362.200000</ele>
<time>2012-11-05T10:19:18Z</time>
</trkpt>
<trkpt lat="47.036801" lon="15.410982">
<ele>361.200000</ele>
<time>2012-11-05T10:19:19Z</time>
</trkpt>
<trkpt lat="47.036753" lon="15.410899">
<ele>360.900000</ele>
<time>2012-11-05T10:19:20Z</time>
</trkpt>
<trkpt lat="47.036730" lon="15.410798">
<ele>360.400000</ele>
<time>2012-11-05T10:19:21Z</time>
</trkpt>
<trkpt lat="47.036732" lon="15.410691">
<ele>360.600000</ele>
<time>2012-11-05T10:19:22Z</time>
</trkpt>
<trkpt lat="47.036785" lon="15.410596">
<ele>360.600000</ele>
<time>2012-11-05T10:19:23Z</time>
</trkpt>
<trkpt lat="47.036840" lon="15.410530">
<ele>360.400000</ele>
<time>2012-11-05T10:19:24Z</time>
</trkpt>
<trkpt lat="47.036907" lon="15.410473">
<ele>360.500000</ele>
<time>2012-11-05T10:19:25Z</time>
</trkpt>
<trkpt lat="47.036976" lon="15.410437">
<ele>360.000000</ele>
<time>2012-11-05T10:19:26Z</time>
</trkpt>
<trkpt lat="47.037044" lon="15.410401">
<ele>359.600000</ele>
<time>2012-11-05T10:19:27Z</time>
</trkpt>
<trkpt lat="47.037121" lon="15.410360">
<ele>359.500000</ele>
<time>2012-11-05T10:19:28Z</time>
</trkpt>
<trkpt lat="47.037189" lon="15.410323">
<ele>359.000000</ele>
<time>2012-11-05T10:19:29Z</time>
</trkpt>
<trkpt lat="47.037260" lon="15.410277">
<ele>359.500000</ele>
<time>2012-11-05T10:19:30Z</time>
</trkpt>
<trkpt lat="47.037328" lon="15.410224">
<ele>360.100000</ele>
<time>2012-11-05T10:19:31Z</time>
</trkpt>
<trkpt lat="47.037391" lon="15.410168">
<ele>360.600000</ele>
<time>2012-11-05T10:19:32Z</time>
</trkpt>
<trkpt lat="47.037455" lon="15.410114">
<ele>360.900000</ele>
<time>2012-11-05T10:19:33Z</time>
</trkpt>
<trkpt lat="47.037516" lon="15.410089">
<ele>360.700000</ele>
<time>2012-11-05T10:19:34Z</time>
</trkpt>
<trkpt lat="47.037638" lon="15.410056">
<ele>360.600000</ele>
<time>2012-11-05T10:19:36Z</time>
</trkpt>
<trkpt lat="47.037712" lon="15.409940">
<ele>359.900000</ele>
<time>2012-11-05T10:19:38Z</time>
</trkpt>
<trkpt lat="47.037693" lon="15.409778">
<ele>359.700000</ele>
<time>2012-11-05T10:19:40Z</time>
</trkpt>
<trkpt lat="47.037650" lon="15.409702">
<ele>359.900000</ele>
<time>2012-11-05T10:19:41Z</time>
</trkpt>
<trkpt lat="47.037597" lon="15.409652">
<ele>359.900000</ele>
<time>2012-11-05T10:19:42Z</time>
</trkpt>
<trkpt lat="47.037523" lon="15.409616">
<ele>360.400000</ele>
<time>2012-11-05T10:19:43Z</time>
</trkpt>
<trkpt lat="47.037454" lon="15.409593">
<ele>360.600000</ele>
<time>2012-11-05T10:19:44Z</time>
</trkpt>
<trkpt lat="47.037374" lon="15.409580">
<ele>360.900000</ele>
<time>2012-11-05T10:19:45Z</time>
</trkpt>
<trkpt lat="47.037300" lon="15.409588">
<ele>361.000000</ele>
<time>2012-11-05T10:19:46Z</time>
</trkpt>
<trkpt lat="47.037226" lon="15.409609">
<ele>361.400000</ele>
<time>2012-11-05T10:19:47Z</time>
</trkpt>
<trkpt lat="47.037156" lon="15.409633">
<ele>361.900000</ele>
<time>2012-11-05T10:19:48Z</time>
</trkpt>
<trkpt lat="47.037063" lon="15.409677">
<ele>362.200000</ele>
<time>2012-11-05T10:19:50Z</time>
</trkpt>
<trkpt lat="47.036990" lon="15.409717">
<ele>362.300000</ele>
<time>2012-11-05T10:19:52Z</time>
</trkpt>
<trkpt lat="47.036919" lon="15.409751">
<ele>362.800000</ele>
<time>2012-11-05T10:19:54Z</time>
</trkpt>
<trkpt lat="47.036857" lon="15.409785">
<ele>363.000000</ele>
<time>2012-11-05T10:19:59Z</time>
</trkpt>
<trkpt lat="47.036811" lon="15.409859">
<ele>364.800000</ele>
<time>2012-11-05T10:20:10Z</time>
</trkpt>
<trkpt lat="47.036735" lon="15.409921">
<ele>365.400000</ele>
<time>2012-11-05T10:20:12Z</time>
</trkpt>
<trkpt lat="47.036611" lon="15.409985">
<ele>365.300000</ele>
<time>2012-11-05T10:20:14Z</time>
</trkpt>
<trkpt lat="47.036537" lon="15.410021">
<ele>365.700000</ele>
<time>2012-11-05T10:20:15Z</time>
</trkpt>
<trkpt lat="47.036466" lon="15.410053">
<ele>365.700000</ele>
<time>2012-11-05T10:20:16Z</time>
</trkpt>
<trkpt lat="47.036398" lon="15.410084">
<ele>365.600000</ele>
<time>2012-11-05T10:20:17Z</time>
</trkpt>
<trkpt lat="47.036265" lon="15.410147">
<ele>365.500000</ele>
<time>2012-11-05T10:20:19Z</time>
</trkpt>
<trkpt lat="47.036193" lon="15.410180">
<ele>365.400000</ele>
<time>2012-11-05T10:20:20Z</time>
</trkpt>
<trkpt lat="47.036117" lon="15.410219">
<ele>365.400000</ele>
<time>2012-11-05T10:20:21Z</time>
</trkpt>
<trkpt lat="47.036026" lon="15.410262">
<ele>365.500000</ele>
<time>2012-11-05T10:20:22Z</time>
</trkpt>
<trkpt lat="47.035929" lon="15.410308">
<ele>365.500000</ele>
<time>2012-11-05T10:20:23Z</time>
</trkpt>
<trkpt lat="47.035828" lon="15.410356">
<ele>365.500000</ele>
<time>2012-11-05T10:20:24Z</time>
</trkpt>
<trkpt lat="47.035721" lon="15.410407">
<ele>365.400000</ele>
<time>2012-11-05T10:20:25Z</time>
</trkpt>
<trkpt lat="47.035619" lon="15.410457">
<ele>365.300000</ele>
<time>2012-11-05T10:20:26Z</time>
</trkpt>
<trkpt lat="47.035516" lon="15.410508">
<ele>365.400000</ele>
<time>2012-11-05T10:20:27Z</time>
</trkpt>
<trkpt lat="47.035411" lon="15.410561">
<ele>365.300000</ele>
<time>2012-11-05T10:20:28Z</time>
</trkpt>
<trkpt lat="47.035308" lon="15.410614">
<ele>365.200000</ele>
<time>2012-11-05T10:20:29Z</time>
</trkpt>
<trkpt lat="47.035205" lon="15.410670">
<ele>365.100000</ele>
<time>2012-11-05T10:20:30Z</time>
</trkpt>
<trkpt lat="47.035098" lon="15.410727">
<ele>364.900000</ele>
<time>2012-11-05T10:20:31Z</time>
</trkpt>
<trkpt lat="47.034992" lon="15.410788">
<ele>364.800000</ele>
<time>2012-11-05T10:20:32Z</time>
</trkpt>
<trkpt lat="47.034884" lon="15.410849">
<ele>364.600000</ele>
<time>2012-11-05T10:20:33Z</time>
</trkpt>
<trkpt lat="47.034776" lon="15.410913">
<ele>364.300000</ele>
<time>2012-11-05T10:20:34Z</time>
</trkpt>
<trkpt lat="47.034672" lon="15.410976">
<ele>364.100000</ele>
<time>2012-11-05T10:20:35Z</time>
</trkpt>
<trkpt lat="47.034568" lon="15.411037">
<ele>363.900000</ele>
<time>2012-11-05T10:20:36Z</time>
</trkpt>
<trkpt lat="47.034470" lon="15.411095">
<ele>363.700000</ele>
<time>2012-11-05T10:20:37Z</time>
</trkpt>
<trkpt lat="47.034384" lon="15.411152">
<ele>363.500000</ele>
<time>2012-11-05T10:20:38Z</time>
</trkpt>
<trkpt lat="47.034299" lon="15.411222">
<ele>363.000000</ele>
<time>2012-11-05T10:20:39Z</time>
</trkpt>
<trkpt lat="47.034230" lon="15.411297">
<ele>362.800000</ele>
<time>2012-11-05T10:20:40Z</time>
</trkpt>
<trkpt lat="47.034163" lon="15.411387">
<ele>362.900000</ele>
<time>2012-11-05T10:20:41Z</time>
</trkpt>
<trkpt lat="47.034110" lon="15.411473">
<ele>363.000000</ele>
<time>2012-11-05T10:20:42Z</time>
</trkpt>
<trkpt lat="47.034058" lon="15.411548">
<ele>363.200000</ele>
<time>2012-11-05T10:20:43Z</time>
</trkpt>
<trkpt lat="47.033989" lon="15.411624">
<ele>362.400000</ele>
<time>2012-11-05T10:20:45Z</time>
</trkpt>
<trkpt lat="47.033912" lon="15.411663">
<ele>362.400000</ele>
<time>2012-11-05T10:20:47Z</time>
</trkpt>
<trkpt lat="47.033828" lon="15.411641">
<ele>361.500000</ele>
<time>2012-11-05T10:20:57Z</time>
</trkpt>
<trkpt lat="47.033777" lon="15.411541">
<ele>362.100000</ele>
<time>2012-11-05T10:20:59Z</time>
</trkpt>
<trkpt lat="47.033727" lon="15.411359">
<ele>362.000000</ele>
<time>2012-11-05T10:21:01Z</time>
</trkpt>
<trkpt lat="47.033685" lon="15.411251">
<ele>362.200000</ele>
<time>2012-11-05T10:21:02Z</time>
</trkpt>
<trkpt lat="47.033631" lon="15.411140">
<ele>362.400000</ele>
<time>2012-11-05T10:21:03Z</time>
</trkpt>
<trkpt lat="47.033566" lon="15.411030">
<ele>362.400000</ele>
<time>2012-11-05T10:21:04Z</time>
</trkpt>
<trkpt lat="47.033489" lon="15.410921">
<ele>362.400000</ele>
<time>2012-11-05T10:21:05Z</time>
</trkpt>
<trkpt lat="47.033395" lon="15.410825">
<ele>362.600000</ele>
<time>2012-11-05T10:21:06Z</time>
</trkpt>
<trkpt lat="47.033293" lon="15.410746">
<ele>362.700000</ele>
<time>2012-11-05T10:21:07Z</time>
</trkpt>
<trkpt lat="47.033181" lon="15.410685">
<ele>362.700000</ele>
<time>2012-11-05T10:21:08Z</time>
</trkpt>
<trkpt lat="47.033064" lon="15.410656">
<ele>362.700000</ele>
<time>2012-11-05T10:21:09Z</time>
</trkpt>
<trkpt lat="47.032950" lon="15.410659">
<ele>362.800000</ele>
<time>2012-11-05T10:21:10Z</time>
</trkpt>
<trkpt lat="47.032845" lon="15.410694">
<ele>363.000000</ele>
<time>2012-11-05T10:21:11Z</time>
</trkpt>
<trkpt lat="47.032758" lon="15.410751">
<ele>363.100000</ele>
<time>2012-11-05T10:21:12Z</time>
</trkpt>
<trkpt lat="47.032672" lon="15.410826">
<ele>363.300000</ele>
<time>2012-11-05T10:21:13Z</time>
</trkpt>
<trkpt lat="47.032604" lon="15.410906">
<ele>363.400000</ele>
<time>2012-11-05T10:21:14Z</time>
</trkpt>
<trkpt lat="47.032537" lon="15.410997">
<ele>363.000000</ele>
<time>2012-11-05T10:21:15Z</time>
</trkpt>
<trkpt lat="47.032487" lon="15.411091">
<ele>363.200000</ele>
<time>2012-11-05T10:21:16Z</time>
</trkpt>
<trkpt lat="47.032441" lon="15.411197">
<ele>363.000000</ele>
<time>2012-11-05T10:21:17Z</time>
</trkpt>
<trkpt lat="47.032403" lon="15.411314">
<ele>363.200000</ele>
<time>2012-11-05T10:21:18Z</time>
</trkpt>
<trkpt lat="47.032366" lon="15.411445">
<ele>363.600000</ele>
<time>2012-11-05T10:21:19Z</time>
</trkpt>
<trkpt lat="47.032340" lon="15.411580">
<ele>364.000000</ele>
<time>2012-11-05T10:21:20Z</time>
</trkpt>
<trkpt lat="47.032323" lon="15.411731">
<ele>364.100000</ele>
<time>2012-11-05T10:21:21Z</time>
</trkpt>
<trkpt lat="47.032320" lon="15.411880">
<ele>364.100000</ele>
<time>2012-11-05T10:21:22Z</time>
</trkpt>
<trkpt lat="47.032335" lon="15.412032">
<ele>364.300000</ele>
<time>2012-11-05T10:21:23Z</time>
</trkpt>
<trkpt lat="47.032357" lon="15.412183">
<ele>364.600000</ele>
<time>2012-11-05T10:21:24Z</time>
</trkpt>
<trkpt lat="47.032394" lon="15.412327">
<ele>365.000000</ele>
<time>2012-11-05T10:21:25Z</time>
</trkpt>
<trkpt lat="47.032443" lon="15.412464">
<ele>365.300000</ele>
<time>2012-11-05T10:21:26Z</time>
</trkpt>
<trkpt lat="47.032505" lon="15.412604">
<ele>365.500000</ele>
<time>2012-11-05T10:21:27Z</time>
</trkpt>
<trkpt lat="47.032568" lon="15.412723">
<ele>365.500000</ele>
<time>2012-11-05T10:21:28Z</time>
</trkpt>
<trkpt lat="47.032643" lon="15.412832">
<ele>365.400000</ele>
<time>2012-11-05T10:21:29Z</time>
</trkpt>
<trkpt lat="47.032716" lon="15.412918">
<ele>365.600000</ele>
<time>2012-11-05T10:21:30Z</time>
</trkpt>
<trkpt lat="47.032797" lon="15.412996">
<ele>366.200000</ele>
<time>2012-11-05T10:21:31Z</time>
</trkpt>
<trkpt lat="47.032873" lon="15.413051">
<ele>366.500000</ele>
<time>2012-11-05T10:21:32Z</time>
</trkpt>
<trkpt lat="47.032957" lon="15.413095">
<ele>366.700000</ele>
<time>2012-11-05T10:21:33Z</time>
</trkpt>
<trkpt lat="47.033041" lon="15.413135">
<ele>366.900000</ele>
<time>2012-11-05T10:21:34Z</time>
</trkpt>
<trkpt lat="47.033112" lon="15.413183">
<ele>366.300000</ele>
<time>2012-11-05T10:21:35Z</time>
</trkpt>
<trkpt lat="47.033174" lon="15.413251">
<ele>366.000000</ele>
<time>2012-11-05T10:21:36Z</time>
</trkpt>
<trkpt lat="47.033236" lon="15.413411">
<ele>366.100000</ele>
<time>2012-11-05T10:21:38Z</time>
</trkpt>
<trkpt lat="47.033254" lon="15.413517">
<ele>366.000000</ele>
<time>2012-11-05T10:21:39Z</time>
</trkpt>
<trkpt lat="47.033251" lon="15.413628">
<ele>365.700000</ele>
<time>2012-11-05T10:21:40Z</time>
</trkpt>
<trkpt lat="47.033243" lon="15.413747">
<ele>365.300000</ele>
<time>2012-11-05T10:21:41Z</time>
</trkpt>
<trkpt lat="47.033234" lon="15.413882">
<ele>364.800000</ele>
<time>2012-11-05T10:21:42Z</time>
</trkpt>
<trkpt lat="47.033220" lon="15.414024">
<ele>364.200000</ele>
<time>2012-11-05T10:21:43Z</time>
</trkpt>
<trkpt lat="47.033201" lon="15.414174">
<ele>363.800000</ele>
<time>2012-11-05T10:21:44Z</time>
</trkpt>
<trkpt lat="47.033178" lon="15.414333">
<ele>363.500000</ele>
<time>2012-11-05T10:21:45Z</time>
</trkpt>
<trkpt lat="47.033144" lon="15.414484">
<ele>363.400000</ele>
<time>2012-11-05T10:21:46Z</time>
</trkpt>
<trkpt lat="47.033107" lon="15.414620">
<ele>363.500000</ele>
<time>2012-11-05T10:21:47Z</time>
</trkpt>
<trkpt lat="47.033071" lon="15.414763">
<ele>363.500000</ele>
<time>2012-11-05T10:21:48Z</time>
</trkpt>
<trkpt lat="47.033048" lon="15.414907">
<ele>363.200000</ele>
<time>2012-11-05T10:21:49Z</time>
</trkpt>
<trkpt lat="47.033032" lon="15.415036">
<ele>363.000000</ele>
<time>2012-11-05T10:21:50Z</time>
</trkpt>
<trkpt lat="47.033006" lon="15.415146">
<ele>363.000000</ele>
<time>2012-11-05T10:21:51Z</time>
</trkpt>
<trkpt lat="47.032970" lon="15.415214">
<ele>362.200000</ele>
<time>2012-11-05T10:21:52Z</time>
</trkpt>
<trkpt lat="47.032879" lon="15.415288">
<ele>360.800000</ele>
<time>2012-11-05T10:21:54Z</time>
</trkpt>
<trkpt lat="47.032780" lon="15.415299">
<ele>358.900000</ele>
<time>2012-11-05T10:21:56Z</time>
</trkpt>
<trkpt lat="47.032715" lon="15.415284">
<ele>358.100000</ele>
<time>2012-11-05T10:21:57Z</time>
</trkpt>
<trkpt lat="47.032643" lon="15.415262">
<ele>357.800000</ele>
<time>2012-11-05T10:21:58Z</time>
</trkpt>
<trkpt lat="47.032564" lon="15.415237">
<ele>357.500000</ele>
<time>2012-11-05T10:21:59Z</time>
</trkpt>
<trkpt lat="47.032493" lon="15.415214">
<ele>357.200000</ele>
<time>2012-11-05T10:22:00Z</time>
</trkpt>
<trkpt lat="47.032419" lon="15.415191">
<ele>357.300000</ele>
<time>2012-11-05T10:22:01Z</time>
</trkpt>
<trkpt lat="47.032358" lon="15.415168">
<ele>357.200000</ele>
<time>2012-11-05T10:22:02Z</time>
</trkpt>
<trkpt lat="47.032292" lon="15.415147">
<ele>357.300000</ele>
<time>2012-11-05T10:22:03Z</time>
</trkpt>
<trkpt lat="47.032189" lon="15.415121">
<ele>358.600000</ele>
<time>2012-11-05T10:22:05Z</time>
</trkpt>
<trkpt lat="47.032114" lon="15.415137">
<ele>359.800000</ele>
<time>2012-11-05T10:22:07Z</time>
</trkpt>
<trkpt lat="47.032059" lon="15.415246">
<ele>360.400000</ele>
<time>2012-11-05T10:22:09Z</time>
</trkpt>
<trkpt lat="47.032021" lon="15.415316">
<ele>361.600000</ele>
<time>2012-11-05T10:22:10Z</time>
</trkpt>
<trkpt lat="47.031980" lon="15.415401">
<ele>361.500000</ele>
<time>2012-11-05T10:22:11Z</time>
</trkpt>
<trkpt lat="47.031938" lon="15.415480">
<ele>361.500000</ele>
<time>2012-11-05T10:22:12Z</time>
</trkpt>
<trkpt lat="47.031890" lon="15.415567">
<ele>361.500000</ele>
<time>2012-11-05T10:22:13Z</time>
</trkpt>
<trkpt lat="47.031850" lon="15.415649">
<ele>361.500000</ele>
<time>2012-11-05T10:22:14Z</time>
</trkpt>
<trkpt lat="47.031811" lon="15.415736">
<ele>361.500000</ele>
<time>2012-11-05T10:22:15Z</time>
</trkpt>
<trkpt lat="47.031783" lon="15.415830">
<ele>361.500000</ele>
<time>2012-11-05T10:22:16Z</time>
</trkpt>
<trkpt lat="47.031762" lon="15.415928">
<ele>361.700000</ele>
<time>2012-11-05T10:22:17Z</time>
</trkpt>
<trkpt lat="47.031748" lon="15.416019">
<ele>361.300000</ele>
<time>2012-11-05T10:22:18Z</time>
</trkpt>
<trkpt lat="47.031738" lon="15.416120">
<ele>361.000000</ele>
<time>2012-11-05T10:22:19Z</time>
</trkpt>
<trkpt lat="47.031731" lon="15.416233">
<ele>360.700000</ele>
<time>2012-11-05T10:22:20Z</time>
</trkpt>
<trkpt lat="47.031724" lon="15.416341">
<ele>360.600000</ele>
<time>2012-11-05T10:22:21Z</time>
</trkpt>
<trkpt lat="47.031717" lon="15.416457">
<ele>360.400000</ele>
<time>2012-11-05T10:22:22Z</time>
</trkpt>
<trkpt lat="47.031714" lon="15.416572">
<ele>360.200000</ele>
<time>2012-11-05T10:22:23Z</time>
</trkpt>
<trkpt lat="47.031710" lon="15.416685">
<ele>360.100000</ele>
<time>2012-11-05T10:22:24Z</time>
</trkpt>
<trkpt lat="47.031706" lon="15.416797">
<ele>360.000000</ele>
<time>2012-11-05T10:22:25Z</time>
</trkpt>
<trkpt lat="47.031705" lon="15.416905">
<ele>360.000000</ele>
<time>2012-11-05T10:22:26Z</time>
</trkpt>
<trkpt lat="47.031703" lon="15.417000">
<ele>359.900000</ele>
<time>2012-11-05T10:22:27Z</time>
</trkpt>
<trkpt lat="47.031704" lon="15.417103">
<ele>359.900000</ele>
<time>2012-11-05T10:22:28Z</time>
</trkpt>
<trkpt lat="47.031706" lon="15.417206">
<ele>360.000000</ele>
<time>2012-11-05T10:22:29Z</time>
</trkpt>
<trkpt lat="47.031705" lon="15.417308">
<ele>360.000000</ele>
<time>2012-11-05T10:22:30Z</time>
</trkpt>
<trkpt lat="47.031704" lon="15.417406">
<ele>360.000000</ele>
<time>2012-11-05T10:22:31Z</time>
</trkpt>
<trkpt lat="47.031708" lon="15.417505">
<ele>359.900000</ele>
<time>2012-11-05T10:22:32Z</time>
</trkpt>
<trkpt lat="47.031699" lon="15.417672">
<ele>359.800000</ele>
<time>2012-11-05T10:22:34Z</time>
</trkpt>
<trkpt lat="47.031697" lon="15.417801">
<ele>359.400000</ele>
<time>2012-11-05T10:22:36Z</time>
</trkpt>
<trkpt lat="47.031684" lon="15.417920">
<ele>359.500000</ele>
<time>2012-11-05T10:22:38Z</time>
</trkpt>
<trkpt lat="47.031661" lon="15.418022">
<ele>361.000000</ele>
<time>2012-11-05T10:22:40Z</time>
</trkpt>
<trkpt lat="47.031656" lon="15.418149">
<ele>360.800000</ele>
<time>2012-11-05T10:22:42Z</time>
</trkpt>
<trkpt lat="47.031669" lon="15.418270">
<ele>360.100000</ele>
<time>2012-11-05T10:22:44Z</time>
</trkpt>
<trkpt lat="47.031711" lon="15.418372">
<ele>360.000000</ele>
<time>2012-11-05T10:22:46Z</time>
</trkpt>
<trkpt lat="47.031774" lon="15.418418">
<ele>359.300000</ele>
<time>2012-11-05T10:22:48Z</time>
</trkpt>
<trkpt lat="47.031864" lon="15.418443">
<ele>358.900000</ele>
<time>2012-11-05T10:22:50Z</time>
</trkpt>
<trkpt lat="47.031939" lon="15.418451">
<ele>358.500000</ele>
<time>2012-11-05T10:22:51Z</time>
</trkpt>
<trkpt lat="47.032016" lon="15.418465">
<ele>358.000000</ele>
<time>2012-11-05T10:22:52Z</time>
</trkpt>
<trkpt lat="47.032085" lon="15.418488">
<ele>358.200000</ele>
<time>2012-11-05T10:22:53Z</time>
</trkpt>
<trkpt lat="47.032169" lon="15.418571">
<ele>359.200000</ele>
<time>2012-11-05T10:22:55Z</time>
</trkpt>
<trkpt lat="47.032196" lon="15.418705">
<ele>358.900000</ele>
<time>2012-11-05T10:22:57Z</time>
</trkpt>
<trkpt lat="47.032219" lon="15.418840">
<ele>358.900000</ele>
<time>2012-11-05T10:22:59Z</time>
</trkpt>
<trkpt lat="47.032244" lon="15.418961">
<ele>359.100000</ele>
<time>2012-11-05T10:23:01Z</time>
</trkpt>
<trkpt lat="47.032296" lon="15.419061">
<ele>358.200000</ele>
<time>2012-11-05T10:23:07Z</time>
</trkpt>
<trkpt lat="47.032351" lon="15.419117">
<ele>355.800000</ele>
<time>2012-11-05T10:23:10Z</time>
</trkpt>
<trkpt lat="47.032412" lon="15.419155">
<ele>353.300000</ele>
<time>2012-11-05T10:23:16Z</time>
</trkpt>
<trkpt lat="47.032504" lon="15.419186">
<ele>349.900000</ele>
<time>2012-11-05T10:23:26Z</time>
</trkpt>
<trkpt lat="47.032606" lon="15.419228">
<ele>349.800000</ele>
<time>2012-11-05T10:23:28Z</time>
</trkpt>
<trkpt lat="47.032673" lon="15.419249">
<ele>349.800000</ele>
<time>2012-11-05T10:23:29Z</time>
</trkpt>
<trkpt lat="47.032747" lon="15.419260">
<ele>349.700000</ele>
<time>2012-11-05T10:23:30Z</time>
</trkpt>
<trkpt lat="47.032815" lon="15.419265">
<ele>349.600000</ele>
<time>2012-11-05T10:23:31Z</time>
</trkpt>
<trkpt lat="47.032880" lon="15.419263">
<ele>350.100000</ele>
<time>2012-11-05T10:23:32Z</time>
</trkpt>
<trkpt lat="47.032973" lon="15.419254">
<ele>351.300000</ele>
<time>2012-11-05T10:23:34Z</time>
</trkpt>
<trkpt lat="47.033033" lon="15.419283">
<ele>352.000000</ele>
<time>2012-11-05T10:23:36Z</time>
</trkpt>
<trkpt lat="47.033027" lon="15.419387">
<ele>352.600000</ele>
<time>2012-11-05T10:23:39Z</time>
</trkpt>
<trkpt lat="47.032956" lon="15.419437">
<ele>353.300000</ele>
<time>2012-11-05T10:23:41Z</time>
</trkpt>
<trkpt lat="47.032847" lon="15.419450">
<ele>354.000000</ele>
<time>2012-11-05T10:23:43Z</time>
</trkpt>
<trkpt lat="47.032755" lon="15.419470">
<ele>354.600000</ele>
<time>2012-11-05T10:23:45Z</time>
</trkpt>
<trkpt lat="47.032693" lon="15.419560">
<ele>354.900000</ele>
<time>2012-11-05T10:23:47Z</time>
</trkpt>
<trkpt lat="47.032674" lon="15.419680">
<ele>355.800000</ele>
<time>2012-11-05T10:23:49Z</time>
</trkpt>
<trkpt lat="47.032655" lon="15.419815">
<ele>356.300000</ele>
<time>2012-11-05T10:23:51Z</time>
</trkpt>
<trkpt lat="47.032641" lon="15.419935">
<ele>357.000000</ele>
<time>2012-11-05T10:23:53Z</time>
</trkpt>
<trkpt lat="47.032623" lon="15.420050">
<ele>357.400000</ele>
<time>2012-11-05T10:23:55Z</time>
</trkpt>
<trkpt lat="47.032604" lon="15.420192">
<ele>358.200000</ele>
<time>2012-11-05T10:23:57Z</time>
</trkpt>
<trkpt lat="47.032579" lon="15.420356">
<ele>358.300000</ele>
<time>2012-11-05T10:23:59Z</time>
</trkpt>
<trkpt lat="47.032564" lon="15.420444">
<ele>358.400000</ele>
<time>2012-11-05T10:24:00Z</time>
</trkpt>
<trkpt lat="47.032548" lon="15.420547">
<ele>358.700000</ele>
<time>2012-11-05T10:24:01Z</time>
</trkpt>
<trkpt lat="47.032534" lon="15.420638">
<ele>358.700000</ele>
<time>2012-11-05T10:24:02Z</time>
</trkpt>
<trkpt lat="47.032520" lon="15.420735">
<ele>358.900000</ele>
<time>2012-11-05T10:24:03Z</time>
</trkpt>
<trkpt lat="47.032506" lon="15.420828">
<ele>358.800000</ele>
<time>2012-11-05T10:24:04Z</time>
</trkpt>
<trkpt lat="47.032483" lon="15.420998">
<ele>359.300000</ele>
<time>2012-11-05T10:24:06Z</time>
</trkpt>
<trkpt lat="47.032460" lon="15.421141">
<ele>358.900000</ele>
<time>2012-11-05T10:24:08Z</time>
</trkpt>
<trkpt lat="47.032440" lon="15.421263">
<ele>359.000000</ele>
<time>2012-11-05T10:24:10Z</time>
</trkpt>
<trkpt lat="47.032424" lon="15.421373">
<ele>358.800000</ele>
<time>2012-11-05T10:24:12Z</time>
</trkpt>
<trkpt lat="47.032406" lon="15.421477">
<ele>358.600000</ele>
<time>2012-11-05T10:24:14Z</time>
</trkpt>
<trkpt lat="47.032388" lon="15.421575">
<ele>358.300000</ele>
<time>2012-11-05T10:24:16Z</time>
</trkpt>
<trkpt lat="47.032368" lon="15.421700">
<ele>357.700000</ele>
<time>2012-11-05T10:24:19Z</time>
</trkpt>
<trkpt lat="47.032347" lon="15.421803">
<ele>357.500000</ele>
<time>2012-11-05T10:24:21Z</time>
</trkpt>
<trkpt lat="47.032327" lon="15.421900">
<ele>359.000000</ele>
<time>2012-11-05T10:24:23Z</time>
</trkpt>
<trkpt lat="47.032359" lon="15.421980">
<ele>359.700000</ele>
<time>2012-11-05T10:24:25Z</time>
</trkpt>
<trkpt lat="47.032430" lon="15.421997">
<ele>358.000000</ele>
<time>2012-11-05T10:24:27Z</time>
</trkpt>
<trkpt lat="47.032492" lon="15.422002">
<ele>357.700000</ele>
<time>2012-11-05T10:24:29Z</time>
</trkpt>
<trkpt lat="47.032571" lon="15.422000">
<ele>357.300000</ele>
<time>2012-11-05T10:24:31Z</time>
</trkpt>
<trkpt lat="47.032656" lon="15.422000">
<ele>357.300000</ele>
<time>2012-11-05T10:24:33Z</time>
</trkpt>
<trkpt lat="47.032741" lon="15.422004">
<ele>357.600000</ele>
<time>2012-11-05T10:24:35Z</time>
</trkpt>
<trkpt lat="47.032818" lon="15.422008">
<ele>358.100000</ele>
<time>2012-11-05T10:24:37Z</time>
</trkpt>
<trkpt lat="47.032880" lon="15.422015">
<ele>358.500000</ele>
<time>2012-11-05T10:24:39Z</time>
</trkpt>
<trkpt lat="47.032953" lon="15.422059">
<ele>358.400000</ele>
<time>2012-11-05T10:24:42Z</time>
</trkpt>
<trkpt lat="47.032950" lon="15.422160">
<ele>359.000000</ele>
<time>2012-11-05T10:24:45Z</time>
</trkpt>
<trkpt lat="47.032954" lon="15.422269">
<ele>359.500000</ele>
<time>2012-11-05T10:24:47Z</time>
</trkpt>
<trkpt lat="47.032956" lon="15.422381">
<ele>359.800000</ele>
<time>2012-11-05T10:24:49Z</time>
</trkpt>
<trkpt lat="47.032965" lon="15.422489">
<ele>359.600000</ele>
<time>2012-11-05T10:24:51Z</time>
</trkpt>
<trkpt lat="47.032973" lon="15.422591">
<ele>360.000000</ele>
<time>2012-11-05T10:24:53Z</time>
</trkpt>
<trkpt lat="47.032977" lon="15.422696">
<ele>360.700000</ele>
<time>2012-11-05T10:24:55Z</time>
</trkpt>
<trkpt lat="47.032973" lon="15.422835">
<ele>361.000000</ele>
<time>2012-11-05T10:24:58Z</time>
</trkpt>
<trkpt lat="47.032972" lon="15.422932">
<ele>361.000000</ele>
<time>2012-11-05T10:25:00Z</time>
</trkpt>
<trkpt lat="47.032974" lon="15.423046">
<ele>360.300000</ele>
<time>2012-11-05T10:25:03Z</time>
</trkpt>
<trkpt lat="47.032947" lon="15.423131">
<ele>361.200000</ele>
<time>2012-11-05T10:25:06Z</time>
</trkpt>
<trkpt lat="47.032866" lon="15.423149">
<ele>361.200000</ele>
<time>2012-11-05T10:25:08Z</time>
</trkpt>
<trkpt lat="47.032789" lon="15.423133">
<ele>361.200000</ele>
<time>2012-11-05T10:25:11Z</time>
</trkpt>
<trkpt lat="47.032707" lon="15.423126">
<ele>361.200000</ele>
<time>2012-11-05T10:25:13Z</time>
</trkpt>
<trkpt lat="47.032640" lon="15.423121">
<ele>361.200000</ele>
<time>2012-11-05T10:25:15Z</time>
</trkpt>
<trkpt lat="47.032573" lon="15.423116">
<ele>361.200000</ele>
<time>2012-11-05T10:25:18Z</time>
</trkpt>
<trkpt lat="47.032480" lon="15.423114">
<ele>360.800000</ele>
<time>2012-11-05T10:25:21Z</time>
</trkpt>
<trkpt lat="47.032460" lon="15.423200">
<ele>360.500000</ele>
<time>2012-11-05T10:25:26Z</time>
</trkpt>
<trkpt lat="47.032278" lon="15.423017">
<ele>323.600000</ele>
<time>2012-11-05T12:26:32Z</time>
</trkpt>
<trkpt lat="47.032417" lon="15.422948">
<ele>289.200000</ele>
<time>2012-11-05T12:26:33Z</time>
</trkpt>
<trkpt lat="47.032413" lon="15.423127">
<ele>313.700000</ele>
<time>2012-11-05T12:26:34Z</time>
</trkpt>
<trkpt lat="47.032423" lon="15.423213">
<ele>306.900000</ele>
<time>2012-11-05T12:26:35Z</time>
</trkpt>
<trkpt lat="47.032530" lon="15.423173">
<ele>389.800000</ele>
<time>2012-11-05T12:26:36Z</time>
</trkpt>
<trkpt lat="47.032518" lon="15.423320">
<ele>431.700000</ele>
<time>2012-11-05T12:26:38Z</time>
</trkpt>
<trkpt lat="47.032475" lon="15.423532">
<ele>401.200000</ele>
<time>2012-11-05T12:26:39Z</time>
</trkpt>
<trkpt lat="47.032685" lon="15.423215">
<ele>366.100000</ele>
<time>2012-11-05T12:26:40Z</time>
</trkpt>
<trkpt lat="47.032448" lon="15.423307">
<ele>357.800000</ele>
<time>2012-11-05T12:26:41Z</time>
</trkpt>
<trkpt lat="47.032431" lon="15.423176">
<ele>354.100000</ele>
<time>2012-11-05T12:28:15Z</time>
</trkpt>
<trkpt lat="47.032365" lon="15.423162">
<ele>353.900000</ele>
<time>2012-11-05T12:28:17Z</time>
</trkpt>
<trkpt lat="47.032284" lon="15.423147">
<ele>353.800000</ele>
<time>2012-11-05T12:28:19Z</time>
</trkpt>
<trkpt lat="47.032220" lon="15.423138">
<ele>353.600000</ele>
<time>2012-11-05T12:28:21Z</time>
</trkpt>
<trkpt lat="47.032145" lon="15.423133">
<ele>353.400000</ele>
<time>2012-11-05T12:28:24Z</time>
</trkpt>
<trkpt lat="47.032081" lon="15.423122">
<ele>353.500000</ele>
<time>2012-11-05T12:28:27Z</time>
</trkpt>
<trkpt lat="47.032017" lon="15.423113">
<ele>353.600000</ele>
<time>2012-11-05T12:28:30Z</time>
</trkpt>
<trkpt lat="47.031962" lon="15.423174">
<ele>353.300000</ele>
<time>2012-11-05T12:28:32Z</time>
</trkpt>
</trkseg>
</trk>
</gpx>